<?xml version="1.0" encoding="UTF-8"?>
<gpx xmlns="http://www.topografix.com/GPX/1/1" xmlns:gpsies="http://www.gpsies.com/GPX/1/0" creator="GPSies http://www.gpsies.com - GBI Toskana 2018 Day 4 Track 2 final (San Gimignano-Pisa)" version="1.1" xmlns:xsi="http://www.w3.org/2001/XMLSchema-instance" xsi:schemaLocation="http://www.topografix.com/GPX/1/1 http://www.topografix.com/GPX/1/1/gpx.xsd http://www.gpsies.com/GPX/1/0 http://www.gpsies.com/gpsies.xsd">
  <metadata>
    <name>GBIIT21 D4 T2</name>
    <author>
      <name>TOAO</name>
      <link href="http://www.gpsies.com/mapUser.do?username=TOAO">
        <text>TOAO on GPSies.com</text>
        <type>GPSiesUserOnWeb</type>
      </link>
    </author>
    <link href="http://www.gpsies.com/map.do?fileId=gblzigkyfrqgrjoj">
      <text>GBIIT21 D4 T2</text>
      <type>trackOnWeb</type>
    </link>
    <time>2018-03-27T18:13:05Z</time>
    <extensions>
      <gpsies:property>one-way trip</gpsies:property>
      <gpsies:trackLengthMeter>103251.44504925064</gpsies:trackLengthMeter>
      <gpsies:totalAscentMeter>1265.0</gpsies:totalAscentMeter>
      <gpsies:totalDescentMeter>1476.0</gpsies:totalDescentMeter>
      <gpsies:minHeightMeter>2.0</gpsies:minHeightMeter>
      <gpsies:maxHeightMeter>519.0</gpsies:maxHeightMeter>
    </extensions>
  </metadata>
  <wpt lat="43.67975990" lon="10.85172414">
    <ele>158.00000</ele>
    <name>San Miniato</name>
    <sym>sightseeing</sym>
    <type>Sightseeing</type>
  </wpt>
  <wpt lat="43.68067548" lon="10.85522174">
    <ele>128.00000</ele>
    <name>Steep ascent!</name>
    <sym>attention</sym>
    <type>Attention</type>
  </wpt>
  <wpt lat="43.70556149" lon="10.43850302">
    <ele>7.0000000</ele>
    <name>Tour finish/Hotel San Ranieri</name>
    <sym>generic</sym>
    <type>Generic</type>
  </wpt>
  <wpt lat="43.68815478" lon="10.58353543">
    <ele>16.000000</ele>
    <name>Start Detour Track 2</name>
    <sym>information</sym>
    <type>Information</type>
  </wpt>
  <trk>
    <name>GBIIT21 D4 T2</name>
    <link href="http://www.gpsies.com/map.do?fileId=gblzigkyfrqgrjoj">
      <type>trackOnWeb</type>
    </link>
    <link href="http://www.gpsies.com/charts/gb/map/gblzigkyfrqgrjoj_map.png">
      <type>elevationChartUrlMap</type>
    </link>
    <link href="http://www.gpsies.com/charts/gb/mapThumb/gblzigkyfrqgrjoj_mapThumb.png">
      <type>elevationChartUrlMapThumb</type>
    </link>
    <link href="http://www.gpsies.com/charts/gb/tab/gblzigkyfrqgrjoj_tab.png">
      <type>elevationChartUrlTab</type>
    </link>
    <trkseg>
      <trkpt lat="43.45862750" lon="11.05346910">
        <ele>217.00000</ele>
        <time>2010-01-01T00:00:00Z</time>
      </trkpt>
      <trkpt lat="43.45865870" lon="11.05058310">
        <ele>232.00000</ele>
        <time>2010-01-01T00:01:23Z</time>
      </trkpt>
      <trkpt lat="43.45904030" lon="11.04887720">
        <ele>237.00000</ele>
        <time>2010-01-01T00:02:15Z</time>
      </trkpt>
      <trkpt lat="43.45920380" lon="11.04860900">
        <ele>238.00000</ele>
        <time>2010-01-01T00:02:25Z</time>
      </trkpt>
      <trkpt lat="43.46143110" lon="11.04607700">
        <ele>261.00000</ele>
        <time>2010-01-01T00:04:21Z</time>
      </trkpt>
      <trkpt lat="43.46161800" lon="11.04540100">
        <ele>260.00000</ele>
        <time>2010-01-01T00:04:42Z</time>
      </trkpt>
      <trkpt lat="43.46166470" lon="11.04421010">
        <ele>269.00000</ele>
        <time>2010-01-01T00:05:17Z</time>
      </trkpt>
      <trkpt lat="43.46158680" lon="11.04328750">
        <ele>276.00000</ele>
        <time>2010-01-01T00:05:44Z</time>
      </trkpt>
      <trkpt lat="43.46161020" lon="11.04280470">
        <ele>277.00000</ele>
        <time>2010-01-01T00:05:58Z</time>
      </trkpt>
      <trkpt lat="43.46178150" lon="11.04223070">
        <ele>278.00000</ele>
        <time>2010-01-01T00:06:16Z</time>
      </trkpt>
      <trkpt lat="43.46211630" lon="11.04173710">
        <ele>282.00000</ele>
        <time>2010-01-01T00:06:35Z</time>
      </trkpt>
      <trkpt lat="43.46226040" lon="11.04166740">
        <ele>284.00000</ele>
        <time>2010-01-01T00:06:41Z</time>
      </trkpt>
      <trkpt lat="43.46232270" lon="11.04120610">
        <ele>283.00000</ele>
        <time>2010-01-01T00:06:55Z</time>
      </trkpt>
      <trkpt lat="43.46231000" lon="11.04074000">
        <ele>285.00000</ele>
        <time>2010-01-01T00:07:09Z</time>
      </trkpt>
      <trkpt lat="43.46221000" lon="11.04030000">
        <ele>285.00000</ele>
        <time>2010-01-01T00:07:22Z</time>
      </trkpt>
      <trkpt lat="43.46224000" lon="11.04007000">
        <ele>286.00000</ele>
        <time>2010-01-01T00:07:29Z</time>
      </trkpt>
      <trkpt lat="43.46239000" lon="11.04004000">
        <ele>287.00000</ele>
        <time>2010-01-01T00:07:35Z</time>
      </trkpt>
      <trkpt lat="43.46312000" lon="11.04059000">
        <ele>293.00000</ele>
        <time>2010-01-01T00:08:08Z</time>
      </trkpt>
      <trkpt lat="43.46321000" lon="11.04075000">
        <ele>293.00000</ele>
        <time>2010-01-01T00:08:14Z</time>
      </trkpt>
      <trkpt lat="43.46344000" lon="11.04166000">
        <ele>300.00000</ele>
        <time>2010-01-01T00:08:42Z</time>
      </trkpt>
      <trkpt lat="43.46364000" lon="11.04239000">
        <ele>300.00000</ele>
        <time>2010-01-01T00:09:05Z</time>
      </trkpt>
      <trkpt lat="43.46377000" lon="11.04248000">
        <ele>301.00000</ele>
        <time>2010-01-01T00:09:11Z</time>
      </trkpt>
      <trkpt lat="43.46447970" lon="11.04252570">
        <ele>308.00000</ele>
        <time>2010-01-01T00:09:39Z</time>
      </trkpt>
      <trkpt lat="43.46454980" lon="11.04186590">
        <ele>309.00000</ele>
        <time>2010-01-01T00:09:58Z</time>
      </trkpt>
      <trkpt lat="43.46479000" lon="11.04166000">
        <ele>308.00000</ele>
        <time>2010-01-01T00:10:10Z</time>
      </trkpt>
      <trkpt lat="43.46560890" lon="11.04179620">
        <ele>309.00000</ele>
        <time>2010-01-01T00:10:43Z</time>
      </trkpt>
      <trkpt lat="43.46586000" lon="11.04176000">
        <ele>307.00000</ele>
        <time>2010-01-01T00:10:53Z</time>
      </trkpt>
      <trkpt lat="43.46605000" lon="11.04168000">
        <ele>306.00000</ele>
        <time>2010-01-01T00:11:01Z</time>
      </trkpt>
      <trkpt lat="43.46626000" lon="11.04155000">
        <ele>308.00000</ele>
        <time>2010-01-01T00:11:10Z</time>
      </trkpt>
      <trkpt lat="43.46655000" lon="11.04123000">
        <ele>312.00000</ele>
        <time>2010-01-01T00:11:25Z</time>
      </trkpt>
      <trkpt lat="43.46672000" lon="11.04090000">
        <ele>313.00000</ele>
        <time>2010-01-01T00:11:37Z</time>
      </trkpt>
      <trkpt lat="43.46696000" lon="11.04052000">
        <ele>313.00000</ele>
        <time>2010-01-01T00:11:51Z</time>
      </trkpt>
      <trkpt lat="43.46737000" lon="11.04022000">
        <ele>318.00000</ele>
        <time>2010-01-01T00:12:10Z</time>
      </trkpt>
      <trkpt lat="43.46780000" lon="11.04005000">
        <ele>319.00000</ele>
        <time>2010-01-01T00:12:28Z</time>
      </trkpt>
      <trkpt lat="43.46812000" lon="11.04005000">
        <ele>320.00000</ele>
        <time>2010-01-01T00:12:41Z</time>
      </trkpt>
      <trkpt lat="43.46846000" lon="11.04015000">
        <ele>322.00000</ele>
        <time>2010-01-01T00:12:55Z</time>
      </trkpt>
      <trkpt lat="43.46887000" lon="11.04051000">
        <ele>320.00000</ele>
        <time>2010-01-01T00:13:14Z</time>
      </trkpt>
      <trkpt lat="43.46908000" lon="11.04065000">
        <ele>317.00000</ele>
        <time>2010-01-01T00:13:23Z</time>
      </trkpt>
      <trkpt lat="43.47021000" lon="11.04101000">
        <ele>308.00000</ele>
        <time>2010-01-01T00:14:10Z</time>
      </trkpt>
      <trkpt lat="43.47037000" lon="11.04102000">
        <ele>308.00000</ele>
        <time>2010-01-01T00:14:16Z</time>
      </trkpt>
      <trkpt lat="43.47117000" lon="11.04075000">
        <ele>304.00000</ele>
        <time>2010-01-01T00:14:49Z</time>
      </trkpt>
      <trkpt lat="43.47146820" lon="11.04098080">
        <ele>304.00000</ele>
        <time>2010-01-01T00:15:03Z</time>
      </trkpt>
      <trkpt lat="43.47172510" lon="11.04146890">
        <ele>301.00000</ele>
        <time>2010-01-01T00:15:20Z</time>
      </trkpt>
      <trkpt lat="43.47185750" lon="11.04144750">
        <ele>297.00000</ele>
        <time>2010-01-01T00:15:26Z</time>
      </trkpt>
      <trkpt lat="43.47198980" lon="11.04128120">
        <ele>294.00000</ele>
        <time>2010-01-01T00:15:33Z</time>
      </trkpt>
      <trkpt lat="43.47200540" lon="11.04113100">
        <ele>293.00000</ele>
        <time>2010-01-01T00:15:37Z</time>
      </trkpt>
      <trkpt lat="43.47141370" lon="11.03924270">
        <ele>288.00000</ele>
        <time>2010-01-01T00:16:37Z</time>
      </trkpt>
      <trkpt lat="43.47118000" lon="11.03818000">
        <ele>278.00000</ele>
        <time>2010-01-01T00:17:09Z</time>
      </trkpt>
      <trkpt lat="43.47117000" lon="11.03459000">
        <ele>271.00000</ele>
        <time>2010-01-01T00:18:54Z</time>
      </trkpt>
      <trkpt lat="43.47120000" lon="11.03399000">
        <ele>270.00000</ele>
        <time>2010-01-01T00:19:11Z</time>
      </trkpt>
      <trkpt lat="43.47128000" lon="11.03360000">
        <ele>269.00000</ele>
        <time>2010-01-01T00:19:23Z</time>
      </trkpt>
      <trkpt lat="43.47142000" lon="11.03318000">
        <ele>269.00000</ele>
        <time>2010-01-01T00:19:36Z</time>
      </trkpt>
      <trkpt lat="43.47163000" lon="11.03283000">
        <ele>267.00000</ele>
        <time>2010-01-01T00:19:49Z</time>
      </trkpt>
      <trkpt lat="43.47203000" lon="11.03248000">
        <ele>261.00000</ele>
        <time>2010-01-01T00:20:08Z</time>
      </trkpt>
      <trkpt lat="43.47440000" lon="11.03104000">
        <ele>266.00000</ele>
        <time>2010-01-01T00:21:52Z</time>
      </trkpt>
      <trkpt lat="43.47470000" lon="11.03082000">
        <ele>267.00000</ele>
        <time>2010-01-01T00:22:06Z</time>
      </trkpt>
      <trkpt lat="43.47628000" lon="11.02948000">
        <ele>263.00000</ele>
        <time>2010-01-01T00:23:20Z</time>
      </trkpt>
      <trkpt lat="43.47665350" lon="11.02939360">
        <ele>265.00000</ele>
        <time>2010-01-01T00:23:35Z</time>
      </trkpt>
      <trkpt lat="43.47671580" lon="11.02896450">
        <ele>266.00000</ele>
        <time>2010-01-01T00:23:48Z</time>
      </trkpt>
      <trkpt lat="43.47659120" lon="11.02848170">
        <ele>265.00000</ele>
        <time>2010-01-01T00:24:03Z</time>
      </trkpt>
      <trkpt lat="43.47695000" lon="11.02572000">
        <ele>285.00000</ele>
        <time>2010-01-01T00:25:24Z</time>
      </trkpt>
      <trkpt lat="43.47770000" lon="11.02360000">
        <ele>285.00000</ele>
        <time>2010-01-01T00:26:33Z</time>
      </trkpt>
      <trkpt lat="43.47788000" lon="11.02293000">
        <ele>287.00000</ele>
        <time>2010-01-01T00:26:53Z</time>
      </trkpt>
      <trkpt lat="43.47799000" lon="11.02183000">
        <ele>295.00000</ele>
        <time>2010-01-01T00:27:26Z</time>
      </trkpt>
      <trkpt lat="43.47796000" lon="11.02079000">
        <ele>301.00000</ele>
        <time>2010-01-01T00:27:56Z</time>
      </trkpt>
      <trkpt lat="43.47797000" lon="11.02037000">
        <ele>302.00000</ele>
        <time>2010-01-01T00:28:08Z</time>
      </trkpt>
      <trkpt lat="43.47802000" lon="11.01996000">
        <ele>304.00000</ele>
        <time>2010-01-01T00:28:20Z</time>
      </trkpt>
      <trkpt lat="43.47818000" lon="11.01940000">
        <ele>305.00000</ele>
        <time>2010-01-01T00:28:38Z</time>
      </trkpt>
      <trkpt lat="43.47866000" lon="11.01826000">
        <ele>305.00000</ele>
        <time>2010-01-01T00:29:16Z</time>
      </trkpt>
      <trkpt lat="43.47981000" lon="11.01665000">
        <ele>308.00000</ele>
        <time>2010-01-01T00:30:22Z</time>
      </trkpt>
      <trkpt lat="43.48042540" lon="11.01555880">
        <ele>316.00000</ele>
        <time>2010-01-01T00:31:02Z</time>
      </trkpt>
      <trkpt lat="43.48048000" lon="11.01503000">
        <ele>321.00000</ele>
        <time>2010-01-01T00:31:17Z</time>
      </trkpt>
      <trkpt lat="43.48040600" lon="11.01328960">
        <ele>330.00000</ele>
        <time>2010-01-01T00:32:08Z</time>
      </trkpt>
      <trkpt lat="43.48135570" lon="11.00974910">
        <ele>352.00000</ele>
        <time>2010-01-01T00:33:58Z</time>
      </trkpt>
      <trkpt lat="43.48153480" lon="11.00928780">
        <ele>352.00000</ele>
        <time>2010-01-01T00:34:13Z</time>
      </trkpt>
      <trkpt lat="43.48232880" lon="11.00799500">
        <ele>354.00000</ele>
        <time>2010-01-01T00:35:02Z</time>
      </trkpt>
      <trkpt lat="43.48291270" lon="11.00726000">
        <ele>358.00000</ele>
        <time>2010-01-01T00:35:34Z</time>
      </trkpt>
      <trkpt lat="43.48361330" lon="11.00435250">
        <ele>364.00000</ele>
        <time>2010-01-01T00:37:03Z</time>
      </trkpt>
      <trkpt lat="43.48492880" lon="11.00104800">
        <ele>375.00000</ele>
        <time>2010-01-01T00:38:52Z</time>
      </trkpt>
      <trkpt lat="43.48580070" lon="10.99972840">
        <ele>373.00000</ele>
        <time>2010-01-01T00:39:44Z</time>
      </trkpt>
      <trkpt lat="43.48664140" lon="10.99821560">
        <ele>383.00000</ele>
        <time>2010-01-01T00:40:39Z</time>
      </trkpt>
      <trkpt lat="43.48686710" lon="10.99741100">
        <ele>390.00000</ele>
        <time>2010-01-01T00:41:04Z</time>
      </trkpt>
      <trkpt lat="43.48690600" lon="10.99663850">
        <ele>398.00000</ele>
        <time>2010-01-01T00:41:27Z</time>
      </trkpt>
      <trkpt lat="43.48655580" lon="10.99487900">
        <ele>403.00000</ele>
        <time>2010-01-01T00:42:20Z</time>
      </trkpt>
      <trkpt lat="43.48665690" lon="10.99318380">
        <ele>410.00000</ele>
        <time>2010-01-01T00:43:09Z</time>
      </trkpt>
      <trkpt lat="43.48707730" lon="10.99074840">
        <ele>419.00000</ele>
        <time>2010-01-01T00:44:22Z</time>
      </trkpt>
      <trkpt lat="43.48801920" lon="10.98769060">
        <ele>442.00000</ele>
        <time>2010-01-01T00:45:58Z</time>
      </trkpt>
      <trkpt lat="43.48794910" lon="10.98609200">
        <ele>450.00000</ele>
        <time>2010-01-01T00:46:45Z</time>
      </trkpt>
      <trkpt lat="43.48699950" lon="10.98365660">
        <ele>461.00000</ele>
        <time>2010-01-01T00:48:05Z</time>
      </trkpt>
      <trkpt lat="43.48703060" lon="10.98231550">
        <ele>458.00000</ele>
        <time>2010-01-01T00:48:44Z</time>
      </trkpt>
      <trkpt lat="43.48662580" lon="10.98026630">
        <ele>452.00000</ele>
        <time>2010-01-01T00:49:46Z</time>
      </trkpt>
      <trkpt lat="43.48721740" lon="10.97842090">
        <ele>445.00000</ele>
        <time>2010-01-01T00:50:44Z</time>
      </trkpt>
      <trkpt lat="43.48653240" lon="10.97679010">
        <ele>446.00000</ele>
        <time>2010-01-01T00:51:39Z</time>
      </trkpt>
      <trkpt lat="43.48618210" lon="10.97520230">
        <ele>436.00000</ele>
        <time>2010-01-01T00:52:27Z</time>
      </trkpt>
      <trkpt lat="43.48635340" lon="10.97337840">
        <ele>421.00000</ele>
        <time>2010-01-01T00:53:21Z</time>
      </trkpt>
      <trkpt lat="43.48486660" lon="10.96827140">
        <ele>424.00000</ele>
        <time>2010-01-01T00:56:01Z</time>
      </trkpt>
      <trkpt lat="43.48481210" lon="10.96760630">
        <ele>426.00000</ele>
        <time>2010-01-01T00:56:20Z</time>
      </trkpt>
      <trkpt lat="43.48506120" lon="10.96594330">
        <ele>433.00000</ele>
        <time>2010-01-01T00:57:09Z</time>
      </trkpt>
      <trkpt lat="43.48405700" lon="10.96372240">
        <ele>445.00000</ele>
        <time>2010-01-01T00:58:25Z</time>
      </trkpt>
      <trkpt lat="43.48378450" lon="10.96326110">
        <ele>445.00000</ele>
        <time>2010-01-01T00:58:43Z</time>
      </trkpt>
      <trkpt lat="43.48158150" lon="10.96063250">
        <ele>456.00000</ele>
        <time>2010-01-01T01:00:39Z</time>
      </trkpt>
      <trkpt lat="43.48129340" lon="10.95995660">
        <ele>454.00000</ele>
        <time>2010-01-01T01:01:02Z</time>
      </trkpt>
      <trkpt lat="43.48104430" lon="10.95902320">
        <ele>454.00000</ele>
        <time>2010-01-01T01:01:31Z</time>
      </trkpt>
      <trkpt lat="43.48064730" lon="10.95644830">
        <ele>462.00000</ele>
        <time>2010-01-01T01:02:47Z</time>
      </trkpt>
      <trkpt lat="43.48063950" lon="10.95522520">
        <ele>468.00000</ele>
        <time>2010-01-01T01:03:23Z</time>
      </trkpt>
      <trkpt lat="43.48074070" lon="10.95374460">
        <ele>468.00000</ele>
        <time>2010-01-01T01:04:06Z</time>
      </trkpt>
      <trkpt lat="43.48170600" lon="10.95269320">
        <ele>467.00000</ele>
        <time>2010-01-01T01:04:55Z</time>
      </trkpt>
      <trkpt lat="43.48197850" lon="10.95260730">
        <ele>467.00000</ele>
        <time>2010-01-01T01:05:07Z</time>
      </trkpt>
      <trkpt lat="43.48248450" lon="10.95289700">
        <ele>471.00000</ele>
        <time>2010-01-01T01:05:28Z</time>
      </trkpt>
      <trkpt lat="43.48417380" lon="10.95278970">
        <ele>467.00000</ele>
        <time>2010-01-01T01:06:36Z</time>
      </trkpt>
      <trkpt lat="43.48439170" lon="10.95265030">
        <ele>465.00000</ele>
        <time>2010-01-01T01:06:46Z</time>
      </trkpt>
      <trkpt lat="43.48486660" lon="10.95152370">
        <ele>467.00000</ele>
        <time>2010-01-01T01:07:24Z</time>
      </trkpt>
      <trkpt lat="43.48485100" lon="10.95054740">
        <ele>455.00000</ele>
        <time>2010-01-01T01:07:52Z</time>
      </trkpt>
      <trkpt lat="43.48530250" lon="10.95012900">
        <ele>451.00000</ele>
        <time>2010-01-01T01:08:14Z</time>
      </trkpt>
      <trkpt lat="43.48538030" lon="10.94936720">
        <ele>445.00000</ele>
        <time>2010-01-01T01:08:36Z</time>
      </trkpt>
      <trkpt lat="43.48536480" lon="10.94880930">
        <ele>443.00000</ele>
        <time>2010-01-01T01:08:52Z</time>
      </trkpt>
      <trkpt lat="43.48594080" lon="10.94627730">
        <ele>444.00000</ele>
        <time>2010-01-01T01:10:09Z</time>
      </trkpt>
      <trkpt lat="43.48661800" lon="10.94520440">
        <ele>444.00000</ele>
        <time>2010-01-01T01:10:51Z</time>
      </trkpt>
      <trkpt lat="43.48701500" lon="10.94367020">
        <ele>452.00000</ele>
        <time>2010-01-01T01:11:38Z</time>
      </trkpt>
      <trkpt lat="43.48732640" lon="10.94303720">
        <ele>452.00000</ele>
        <time>2010-01-01T01:12:00Z</time>
      </trkpt>
      <trkpt lat="43.48792580" lon="10.94244710">
        <ele>456.00000</ele>
        <time>2010-01-01T01:12:30Z</time>
      </trkpt>
      <trkpt lat="43.48827600" lon="10.94100950">
        <ele>451.00000</ele>
        <time>2010-01-01T01:13:14Z</time>
      </trkpt>
      <trkpt lat="43.48882090" lon="10.94066610">
        <ele>452.00000</ele>
        <time>2010-01-01T01:13:38Z</time>
      </trkpt>
      <trkpt lat="43.48934240" lon="10.94010820">
        <ele>454.00000</ele>
        <time>2010-01-01T01:14:04Z</time>
      </trkpt>
      <trkpt lat="43.48947470" lon="10.93940010">
        <ele>452.00000</ele>
        <time>2010-01-01T01:14:25Z</time>
      </trkpt>
      <trkpt lat="43.49010520" lon="10.93290920">
        <ele>459.00000</ele>
        <time>2010-01-01T01:17:36Z</time>
      </trkpt>
      <trkpt lat="43.49004300" lon="10.93239420">
        <ele>459.00000</ele>
        <time>2010-01-01T01:17:51Z</time>
      </trkpt>
      <trkpt lat="43.49010520" lon="10.93113890">
        <ele>466.00000</ele>
        <time>2010-01-01T01:18:27Z</time>
      </trkpt>
      <trkpt lat="43.49033100" lon="10.93030210">
        <ele>468.00000</ele>
        <time>2010-01-01T01:18:53Z</time>
      </trkpt>
      <trkpt lat="43.49100030" lon="10.92875710">
        <ele>478.00000</ele>
        <time>2010-01-01T01:19:45Z</time>
      </trkpt>
      <trkpt lat="43.49137400" lon="10.92843530">
        <ele>478.00000</ele>
        <time>2010-01-01T01:20:03Z</time>
      </trkpt>
      <trkpt lat="43.49200440" lon="10.92881080">
        <ele>484.00000</ele>
        <time>2010-01-01T01:20:31Z</time>
      </trkpt>
      <trkpt lat="43.49244810" lon="10.92871420">
        <ele>486.00000</ele>
        <time>2010-01-01T01:20:49Z</time>
      </trkpt>
      <trkpt lat="43.49395020" lon="10.92665430">
        <ele>500.00000</ele>
        <time>2010-01-01T01:22:13Z</time>
      </trkpt>
      <trkpt lat="43.49495430" lon="10.92599980">
        <ele>503.00000</ele>
        <time>2010-01-01T01:22:58Z</time>
      </trkpt>
      <trkpt lat="43.49543680" lon="10.92613930">
        <ele>504.00000</ele>
        <time>2010-01-01T01:23:18Z</time>
      </trkpt>
      <trkpt lat="43.49597380" lon="10.92607490">
        <ele>507.00000</ele>
        <time>2010-01-01T01:23:39Z</time>
      </trkpt>
      <trkpt lat="43.49659650" lon="10.92697620">
        <ele>513.00000</ele>
        <time>2010-01-01T01:24:15Z</time>
      </trkpt>
      <trkpt lat="43.49816080" lon="10.92729800">
        <ele>516.00000</ele>
        <time>2010-01-01T01:25:19Z</time>
      </trkpt>
      <trkpt lat="43.50063570" lon="10.92796320">
        <ele>510.00000</ele>
        <time>2010-01-01T01:27:00Z</time>
      </trkpt>
      <trkpt lat="43.50469010" lon="10.92958330">
        <ele>519.00000</ele>
        <time>2010-01-01T01:29:49Z</time>
      </trkpt>
      <trkpt lat="43.50631650" lon="10.92966910">
        <ele>505.00000</ele>
        <time>2010-01-01T01:30:54Z</time>
      </trkpt>
      <trkpt lat="43.50676780" lon="10.92889660">
        <ele>500.00000</ele>
        <time>2010-01-01T01:31:23Z</time>
      </trkpt>
      <trkpt lat="43.50741370" lon="10.92866060">
        <ele>497.00000</ele>
        <time>2010-01-01T01:31:49Z</time>
      </trkpt>
      <trkpt lat="43.50940570" lon="10.92860690">
        <ele>489.00000</ele>
        <time>2010-01-01T01:33:09Z</time>
      </trkpt>
      <trkpt lat="43.51183340" lon="10.93007680">
        <ele>486.00000</ele>
        <time>2010-01-01T01:34:55Z</time>
      </trkpt>
      <trkpt lat="43.51270490" lon="10.93026990">
        <ele>482.00000</ele>
        <time>2010-01-01T01:35:30Z</time>
      </trkpt>
      <trkpt lat="43.51321840" lon="10.93010900">
        <ele>481.00000</ele>
        <time>2010-01-01T01:35:52Z</time>
      </trkpt>
      <trkpt lat="43.51387970" lon="10.92895030">
        <ele>474.00000</ele>
        <time>2010-01-01T01:36:34Z</time>
      </trkpt>
      <trkpt lat="43.51427660" lon="10.92864990">
        <ele>472.00000</ele>
        <time>2010-01-01T01:36:52Z</time>
      </trkpt>
      <trkpt lat="43.51495350" lon="10.92847820">
        <ele>464.00000</ele>
        <time>2010-01-01T01:37:20Z</time>
      </trkpt>
      <trkpt lat="43.51560700" lon="10.92787740">
        <ele>458.00000</ele>
        <time>2010-01-01T01:37:51Z</time>
      </trkpt>
      <trkpt lat="43.51627610" lon="10.92689030">
        <ele>445.00000</ele>
        <time>2010-01-01T01:38:31Z</time>
      </trkpt>
      <trkpt lat="43.51941930" lon="10.92715850">
        <ele>441.00000</ele>
        <time>2010-01-01T01:40:37Z</time>
      </trkpt>
      <trkpt lat="43.52222780" lon="10.92794170">
        <ele>434.00000</ele>
        <time>2010-01-01T01:42:31Z</time>
      </trkpt>
      <trkpt lat="43.52339470" lon="10.92856400">
        <ele>432.00000</ele>
        <time>2010-01-01T01:43:22Z</time>
      </trkpt>
      <trkpt lat="43.52482610" lon="10.92889660">
        <ele>423.00000</ele>
        <time>2010-01-01T01:44:20Z</time>
      </trkpt>
      <trkpt lat="43.52535510" lon="10.92889660">
        <ele>426.00000</ele>
        <time>2010-01-01T01:44:41Z</time>
      </trkpt>
      <trkpt lat="43.52817110" lon="10.92851040">
        <ele>438.00000</ele>
        <time>2010-01-01T01:46:34Z</time>
      </trkpt>
      <trkpt lat="43.52899560" lon="10.92871420">
        <ele>435.00000</ele>
        <time>2010-01-01T01:47:08Z</time>
      </trkpt>
      <trkpt lat="43.52981240" lon="10.92941160">
        <ele>436.00000</ele>
        <time>2010-01-01T01:47:46Z</time>
      </trkpt>
      <trkpt lat="43.53065250" lon="10.93196510">
        <ele>424.00000</ele>
        <time>2010-01-01T01:49:07Z</time>
      </trkpt>
      <trkpt lat="43.53132140" lon="10.93650340">
        <ele>412.00000</ele>
        <time>2010-01-01T01:51:22Z</time>
      </trkpt>
      <trkpt lat="43.53247260" lon="10.93912120">
        <ele>410.00000</ele>
        <time>2010-01-01T01:52:51Z</time>
      </trkpt>
      <trkpt lat="43.53281480" lon="10.94289770">
        <ele>408.00000</ele>
        <time>2010-01-01T01:54:41Z</time>
      </trkpt>
      <trkpt lat="43.53282260" lon="10.94565510">
        <ele>406.00000</ele>
        <time>2010-01-01T01:56:01Z</time>
      </trkpt>
      <trkpt lat="43.53336710" lon="10.94717860">
        <ele>399.00000</ele>
        <time>2010-01-01T01:56:51Z</time>
      </trkpt>
      <trkpt lat="43.53339040" lon="10.94754870">
        <ele>398.00000</ele>
        <time>2010-01-01T01:57:01Z</time>
      </trkpt>
      <trkpt lat="43.53335150" lon="10.94812810">
        <ele>397.00000</ele>
        <time>2010-01-01T01:57:18Z</time>
      </trkpt>
      <trkpt lat="43.53365100" lon="10.94868060">
        <ele>394.00000</ele>
        <time>2010-01-01T01:57:38Z</time>
      </trkpt>
      <trkpt lat="43.53419160" lon="10.94922240">
        <ele>388.00000</ele>
        <time>2010-01-01T01:58:05Z</time>
      </trkpt>
      <trkpt lat="43.53411380" lon="10.95024700">
        <ele>382.00000</ele>
        <time>2010-01-01T01:58:35Z</time>
      </trkpt>
      <trkpt lat="43.53430430" lon="10.95047770">
        <ele>380.00000</ele>
        <time>2010-01-01T01:58:45Z</time>
      </trkpt>
      <trkpt lat="43.53462710" lon="10.95070830">
        <ele>377.00000</ele>
        <time>2010-01-01T01:59:00Z</time>
      </trkpt>
      <trkpt lat="43.53473600" lon="10.95144860">
        <ele>371.00000</ele>
        <time>2010-01-01T01:59:21Z</time>
      </trkpt>
      <trkpt lat="43.53487600" lon="10.95156660">
        <ele>368.00000</ele>
        <time>2010-01-01T01:59:28Z</time>
      </trkpt>
      <trkpt lat="43.53504710" lon="10.95158810">
        <ele>366.00000</ele>
        <time>2010-01-01T01:59:35Z</time>
      </trkpt>
      <trkpt lat="43.53548660" lon="10.95115900">
        <ele>363.00000</ele>
        <time>2010-01-01T01:59:56Z</time>
      </trkpt>
      <trkpt lat="43.53570050" lon="10.95107310">
        <ele>361.00000</ele>
        <time>2010-01-01T02:00:05Z</time>
      </trkpt>
      <trkpt lat="43.53685160" lon="10.95135210">
        <ele>353.00000</ele>
        <time>2010-01-01T02:00:52Z</time>
      </trkpt>
      <trkpt lat="43.53901370" lon="10.95364800">
        <ele>328.00000</ele>
        <time>2010-01-01T02:02:41Z</time>
      </trkpt>
      <trkpt lat="43.53927430" lon="10.95430790">
        <ele>328.00000</ele>
        <time>2010-01-01T02:03:03Z</time>
      </trkpt>
      <trkpt lat="43.53963980" lon="10.95430250">
        <ele>328.00000</ele>
        <time>2010-01-01T02:03:18Z</time>
      </trkpt>
      <trkpt lat="43.53994700" lon="10.95466730">
        <ele>328.00000</ele>
        <time>2010-01-01T02:03:34Z</time>
      </trkpt>
      <trkpt lat="43.54089580" lon="10.95474770">
        <ele>314.00000</ele>
        <time>2010-01-01T02:04:12Z</time>
      </trkpt>
      <trkpt lat="43.54101250" lon="10.95495700">
        <ele>313.00000</ele>
        <time>2010-01-01T02:04:20Z</time>
      </trkpt>
      <trkpt lat="43.54110580" lon="10.95541830">
        <ele>311.00000</ele>
        <time>2010-01-01T02:04:34Z</time>
      </trkpt>
      <trkpt lat="43.54124000" lon="10.95551000">
        <ele>308.00000</ele>
        <time>2010-01-01T02:04:40Z</time>
      </trkpt>
      <trkpt lat="43.54172000" lon="10.95540000">
        <ele>302.00000</ele>
        <time>2010-01-01T02:04:59Z</time>
      </trkpt>
      <trkpt lat="43.54191000" lon="10.95530000">
        <ele>301.00000</ele>
        <time>2010-01-01T02:05:07Z</time>
      </trkpt>
      <trkpt lat="43.54248000" lon="10.95522000">
        <ele>294.00000</ele>
        <time>2010-01-01T02:05:30Z</time>
      </trkpt>
      <trkpt lat="43.54318230" lon="10.95568650">
        <ele>284.00000</ele>
        <time>2010-01-01T02:06:01Z</time>
      </trkpt>
      <trkpt lat="43.54421000" lon="10.95655000">
        <ele>273.00000</ele>
        <time>2010-01-01T02:06:50Z</time>
      </trkpt>
      <trkpt lat="43.54469000" lon="10.95689000">
        <ele>266.00000</ele>
        <time>2010-01-01T02:07:11Z</time>
      </trkpt>
      <trkpt lat="43.54518000" lon="10.95717000">
        <ele>264.00000</ele>
        <time>2010-01-01T02:07:32Z</time>
      </trkpt>
      <trkpt lat="43.54586000" lon="10.95748000">
        <ele>262.00000</ele>
        <time>2010-01-01T02:08:01Z</time>
      </trkpt>
      <trkpt lat="43.54645000" lon="10.95759000">
        <ele>263.00000</ele>
        <time>2010-01-01T02:08:25Z</time>
      </trkpt>
      <trkpt lat="43.54663000" lon="10.95756000">
        <ele>265.00000</ele>
        <time>2010-01-01T02:08:32Z</time>
      </trkpt>
      <trkpt lat="43.54772000" lon="10.95700000">
        <ele>257.00000</ele>
        <time>2010-01-01T02:09:19Z</time>
      </trkpt>
      <trkpt lat="43.54800000" lon="10.95695000">
        <ele>255.00000</ele>
        <time>2010-01-01T02:09:30Z</time>
      </trkpt>
      <trkpt lat="43.54827000" lon="10.95707000">
        <ele>254.00000</ele>
        <time>2010-01-01T02:09:41Z</time>
      </trkpt>
      <trkpt lat="43.54876000" lon="10.95757000">
        <ele>252.00000</ele>
        <time>2010-01-01T02:10:06Z</time>
      </trkpt>
      <trkpt lat="43.54901000" lon="10.95768000">
        <ele>252.00000</ele>
        <time>2010-01-01T02:10:16Z</time>
      </trkpt>
      <trkpt lat="43.54922000" lon="10.95742000">
        <ele>248.00000</ele>
        <time>2010-01-01T02:10:28Z</time>
      </trkpt>
      <trkpt lat="43.55022000" lon="10.95525000">
        <ele>236.00000</ele>
        <time>2010-01-01T02:11:42Z</time>
      </trkpt>
      <trkpt lat="43.55045000" lon="10.95494000">
        <ele>234.00000</ele>
        <time>2010-01-01T02:11:55Z</time>
      </trkpt>
      <trkpt lat="43.55118000" lon="10.95443000">
        <ele>232.00000</ele>
        <time>2010-01-01T02:12:28Z</time>
      </trkpt>
      <trkpt lat="43.55145000" lon="10.95421000">
        <ele>232.00000</ele>
        <time>2010-01-01T02:12:40Z</time>
      </trkpt>
      <trkpt lat="43.55219000" lon="10.95342000">
        <ele>231.00000</ele>
        <time>2010-01-01T02:13:18Z</time>
      </trkpt>
      <trkpt lat="43.55249000" lon="10.95326000">
        <ele>229.00000</ele>
        <time>2010-01-01T02:13:31Z</time>
      </trkpt>
      <trkpt lat="43.55349000" lon="10.95295000">
        <ele>224.00000</ele>
        <time>2010-01-01T02:14:12Z</time>
      </trkpt>
      <trkpt lat="43.55468700" lon="10.95267170">
        <ele>220.00000</ele>
        <time>2010-01-01T02:15:00Z</time>
      </trkpt>
      <trkpt lat="43.55560000" lon="10.95210000">
        <ele>206.00000</ele>
        <time>2010-01-01T02:15:40Z</time>
      </trkpt>
      <trkpt lat="43.55749000" lon="10.95142000">
        <ele>195.00000</ele>
        <time>2010-01-01T02:16:59Z</time>
      </trkpt>
      <trkpt lat="43.55775000" lon="10.95129000">
        <ele>192.00000</ele>
        <time>2010-01-01T02:17:10Z</time>
      </trkpt>
      <trkpt lat="43.55814000" lon="10.95102000">
        <ele>194.00000</ele>
        <time>2010-01-01T02:17:27Z</time>
      </trkpt>
      <trkpt lat="43.55841000" lon="10.95094000">
        <ele>195.00000</ele>
        <time>2010-01-01T02:17:38Z</time>
      </trkpt>
      <trkpt lat="43.55870000" lon="10.95092000">
        <ele>195.00000</ele>
        <time>2010-01-01T02:17:50Z</time>
      </trkpt>
      <trkpt lat="43.55994000" lon="10.95106000">
        <ele>193.00000</ele>
        <time>2010-01-01T02:18:40Z</time>
      </trkpt>
      <trkpt lat="43.56027000" lon="10.95107000">
        <ele>191.00000</ele>
        <time>2010-01-01T02:18:53Z</time>
      </trkpt>
      <trkpt lat="43.56154000" lon="10.95102000">
        <ele>188.00000</ele>
        <time>2010-01-01T02:19:44Z</time>
      </trkpt>
      <trkpt lat="43.56185000" lon="10.95113000">
        <ele>186.00000</ele>
        <time>2010-01-01T02:19:57Z</time>
      </trkpt>
      <trkpt lat="43.56199000" lon="10.95128000">
        <ele>184.00000</ele>
        <time>2010-01-01T02:20:04Z</time>
      </trkpt>
      <trkpt lat="43.56273000" lon="10.95248000">
        <ele>174.00000</ele>
        <time>2010-01-01T02:20:49Z</time>
      </trkpt>
      <trkpt lat="43.56290000" lon="10.95290000">
        <ele>171.00000</ele>
        <time>2010-01-01T02:21:03Z</time>
      </trkpt>
      <trkpt lat="43.56367000" lon="10.95519000">
        <ele>170.00000</ele>
        <time>2010-01-01T02:22:17Z</time>
      </trkpt>
      <trkpt lat="43.56399000" lon="10.95586000">
        <ele>168.00000</ele>
        <time>2010-01-01T02:22:40Z</time>
      </trkpt>
      <trkpt lat="43.56451000" lon="10.95661000">
        <ele>165.00000</ele>
        <time>2010-01-01T02:23:10Z</time>
      </trkpt>
      <trkpt lat="43.56524000" lon="10.95792000">
        <ele>156.00000</ele>
        <time>2010-01-01T02:23:58Z</time>
      </trkpt>
      <trkpt lat="43.56544000" lon="10.95818000">
        <ele>155.00000</ele>
        <time>2010-01-01T02:24:09Z</time>
      </trkpt>
      <trkpt lat="43.56627000" lon="10.95905000">
        <ele>147.00000</ele>
        <time>2010-01-01T02:24:51Z</time>
      </trkpt>
      <trkpt lat="43.56691000" lon="10.95999000">
        <ele>143.00000</ele>
        <time>2010-01-01T02:25:28Z</time>
      </trkpt>
      <trkpt lat="43.56718000" lon="10.96022000">
        <ele>142.00000</ele>
        <time>2010-01-01T02:25:41Z</time>
      </trkpt>
      <trkpt lat="43.56778000" lon="10.96053000">
        <ele>145.00000</ele>
        <time>2010-01-01T02:26:06Z</time>
      </trkpt>
      <trkpt lat="43.56812000" lon="10.96074000">
        <ele>146.00000</ele>
        <time>2010-01-01T02:26:21Z</time>
      </trkpt>
      <trkpt lat="43.56939000" lon="10.96191000">
        <ele>135.00000</ele>
        <time>2010-01-01T02:27:22Z</time>
      </trkpt>
      <trkpt lat="43.56960000" lon="10.96236000">
        <ele>136.00000</ele>
        <time>2010-01-01T02:27:38Z</time>
      </trkpt>
      <trkpt lat="43.56988000" lon="10.96322000">
        <ele>135.00000</ele>
        <time>2010-01-01T02:28:05Z</time>
      </trkpt>
      <trkpt lat="43.57008000" lon="10.96347000">
        <ele>133.00000</ele>
        <time>2010-01-01T02:28:16Z</time>
      </trkpt>
      <trkpt lat="43.57035000" lon="10.96352000">
        <ele>131.00000</ele>
        <time>2010-01-01T02:28:27Z</time>
      </trkpt>
      <trkpt lat="43.57064000" lon="10.96338000">
        <ele>132.00000</ele>
        <time>2010-01-01T02:28:39Z</time>
      </trkpt>
      <trkpt lat="43.57092760" lon="10.96312160">
        <ele>132.00000</ele>
        <time>2010-01-01T02:28:53Z</time>
      </trkpt>
      <trkpt lat="43.57158000" lon="10.96271000">
        <ele>123.00000</ele>
        <time>2010-01-01T02:29:22Z</time>
      </trkpt>
      <trkpt lat="43.57240000" lon="10.96255000">
        <ele>119.00000</ele>
        <time>2010-01-01T02:29:55Z</time>
      </trkpt>
      <trkpt lat="43.57283000" lon="10.96262000">
        <ele>111.00000</ele>
        <time>2010-01-01T02:30:12Z</time>
      </trkpt>
      <trkpt lat="43.57682000" lon="10.96358000">
        <ele>72.000000</ele>
        <time>2010-01-01T02:32:54Z</time>
      </trkpt>
      <trkpt lat="43.57822000" lon="10.96390000">
        <ele>63.000000</ele>
        <time>2010-01-01T02:33:51Z</time>
      </trkpt>
      <trkpt lat="43.58097000" lon="10.96496000">
        <ele>60.000000</ele>
        <time>2010-01-01T02:35:45Z</time>
      </trkpt>
      <trkpt lat="43.58352000" lon="10.96593000">
        <ele>60.000000</ele>
        <time>2010-01-01T02:37:31Z</time>
      </trkpt>
      <trkpt lat="43.58399000" lon="10.96618000">
        <ele>59.000000</ele>
        <time>2010-01-01T02:37:51Z</time>
      </trkpt>
      <trkpt lat="43.58413000" lon="10.96616000">
        <ele>59.000000</ele>
        <time>2010-01-01T02:37:57Z</time>
      </trkpt>
      <trkpt lat="43.58552000" lon="10.96667000">
        <ele>57.000000</ele>
        <time>2010-01-01T02:38:55Z</time>
      </trkpt>
      <trkpt lat="43.58712000" lon="10.96763000">
        <ele>56.000000</ele>
        <time>2010-01-01T02:40:04Z</time>
      </trkpt>
      <trkpt lat="43.58832000" lon="10.96838000">
        <ele>58.000000</ele>
        <time>2010-01-01T02:40:57Z</time>
      </trkpt>
      <trkpt lat="43.58853000" lon="10.96843000">
        <ele>57.000000</ele>
        <time>2010-01-01T02:41:06Z</time>
      </trkpt>
      <trkpt lat="43.58880000" lon="10.96840000">
        <ele>55.000000</ele>
        <time>2010-01-01T02:41:17Z</time>
      </trkpt>
      <trkpt lat="43.59062000" lon="10.96768000">
        <ele>55.000000</ele>
        <time>2010-01-01T02:42:32Z</time>
      </trkpt>
      <trkpt lat="43.59223000" lon="10.96670000">
        <ele>52.000000</ele>
        <time>2010-01-01T02:43:43Z</time>
      </trkpt>
      <trkpt lat="43.59248000" lon="10.96659000">
        <ele>52.000000</ele>
        <time>2010-01-01T02:43:53Z</time>
      </trkpt>
      <trkpt lat="43.59365000" lon="10.96655000">
        <ele>50.000000</ele>
        <time>2010-01-01T02:44:40Z</time>
      </trkpt>
      <trkpt lat="43.59387000" lon="10.96675000">
        <ele>52.000000</ele>
        <time>2010-01-01T02:44:51Z</time>
      </trkpt>
      <trkpt lat="43.59401370" lon="10.96670500">
        <ele>52.000000</ele>
        <time>2010-01-01T02:44:57Z</time>
      </trkpt>
      <trkpt lat="43.59414000" lon="10.96655000">
        <ele>53.000000</ele>
        <time>2010-01-01T02:45:03Z</time>
      </trkpt>
      <trkpt lat="43.59552890" lon="10.96654410">
        <ele>51.000000</ele>
        <time>2010-01-01T02:45:59Z</time>
      </trkpt>
      <trkpt lat="43.59760000" lon="10.96656000">
        <ele>53.000000</ele>
        <time>2010-01-01T02:47:22Z</time>
      </trkpt>
      <trkpt lat="43.59935000" lon="10.96655000">
        <ele>51.000000</ele>
        <time>2010-01-01T02:48:32Z</time>
      </trkpt>
      <trkpt lat="43.60061000" lon="10.96657000">
        <ele>53.000000</ele>
        <time>2010-01-01T02:49:22Z</time>
      </trkpt>
      <trkpt lat="43.60110000" lon="10.96662000">
        <ele>52.000000</ele>
        <time>2010-01-01T02:49:42Z</time>
      </trkpt>
      <trkpt lat="43.60136000" lon="10.96677000">
        <ele>53.000000</ele>
        <time>2010-01-01T02:49:53Z</time>
      </trkpt>
      <trkpt lat="43.60166690" lon="10.96687130">
        <ele>54.000000</ele>
        <time>2010-01-01T02:50:06Z</time>
      </trkpt>
      <trkpt lat="43.60180000" lon="10.96687000">
        <ele>54.000000</ele>
        <time>2010-01-01T02:50:11Z</time>
      </trkpt>
      <trkpt lat="43.60360000" lon="10.96784000">
        <ele>51.000000</ele>
        <time>2010-01-01T02:51:29Z</time>
      </trkpt>
      <trkpt lat="43.60405000" lon="10.96760000">
        <ele>52.000000</ele>
        <time>2010-01-01T02:51:48Z</time>
      </trkpt>
      <trkpt lat="43.60487000" lon="10.96687000">
        <ele>52.000000</ele>
        <time>2010-01-01T02:52:27Z</time>
      </trkpt>
      <trkpt lat="43.60548150" lon="10.96566430">
        <ele>52.000000</ele>
        <time>2010-01-01T02:53:10Z</time>
      </trkpt>
      <trkpt lat="43.60754000" lon="10.96070000">
        <ele>48.000000</ele>
        <time>2010-01-01T02:55:55Z</time>
      </trkpt>
      <trkpt lat="43.60775000" lon="10.96063250">
        <ele>48.000000</ele>
        <time>2010-01-01T02:56:04Z</time>
      </trkpt>
      <trkpt lat="43.60771000" lon="10.96036000">
        <ele>48.000000</ele>
        <time>2010-01-01T02:56:12Z</time>
      </trkpt>
      <trkpt lat="43.60804000" lon="10.95963000">
        <ele>50.000000</ele>
        <time>2010-01-01T02:56:37Z</time>
      </trkpt>
      <trkpt lat="43.60803000" lon="10.95902000">
        <ele>50.000000</ele>
        <time>2010-01-01T02:56:55Z</time>
      </trkpt>
      <trkpt lat="43.60794000" lon="10.95837000">
        <ele>50.000000</ele>
        <time>2010-01-01T02:57:14Z</time>
      </trkpt>
      <trkpt lat="43.60793000" lon="10.95803000">
        <ele>51.000000</ele>
        <time>2010-01-01T02:57:24Z</time>
      </trkpt>
      <trkpt lat="43.60794000" lon="10.95788000">
        <ele>52.000000</ele>
        <time>2010-01-01T02:57:28Z</time>
      </trkpt>
      <trkpt lat="43.60802000" lon="10.95770000">
        <ele>52.000000</ele>
        <time>2010-01-01T02:57:34Z</time>
      </trkpt>
      <trkpt lat="43.60969000" lon="10.95607000">
        <ele>52.000000</ele>
        <time>2010-01-01T02:58:56Z</time>
      </trkpt>
      <trkpt lat="43.60991000" lon="10.95598000">
        <ele>52.000000</ele>
        <time>2010-01-01T02:59:05Z</time>
      </trkpt>
      <trkpt lat="43.61062000" lon="10.95590000">
        <ele>50.000000</ele>
        <time>2010-01-01T02:59:34Z</time>
      </trkpt>
      <trkpt lat="43.61085000" lon="10.95577000">
        <ele>48.000000</ele>
        <time>2010-01-01T02:59:44Z</time>
      </trkpt>
      <trkpt lat="43.61110590" lon="10.95539680">
        <ele>48.000000</ele>
        <time>2010-01-01T02:59:59Z</time>
      </trkpt>
      <trkpt lat="43.61148000" lon="10.95448000">
        <ele>52.000000</ele>
        <time>2010-01-01T03:00:29Z</time>
      </trkpt>
      <trkpt lat="43.61205000" lon="10.95344000">
        <ele>50.000000</ele>
        <time>2010-01-01T03:01:07Z</time>
      </trkpt>
      <trkpt lat="43.61221000" lon="10.95328000">
        <ele>51.000000</ele>
        <time>2010-01-01T03:01:15Z</time>
      </trkpt>
      <trkpt lat="43.61273000" lon="10.95304000">
        <ele>51.000000</ele>
        <time>2010-01-01T03:01:37Z</time>
      </trkpt>
      <trkpt lat="43.61419000" lon="10.95141000">
        <ele>50.000000</ele>
        <time>2010-01-01T03:02:52Z</time>
      </trkpt>
      <trkpt lat="43.61534000" lon="10.95021000">
        <ele>52.000000</ele>
        <time>2010-01-01T03:03:50Z</time>
      </trkpt>
      <trkpt lat="43.61552000" lon="10.95017000">
        <ele>51.000000</ele>
        <time>2010-01-01T03:03:57Z</time>
      </trkpt>
      <trkpt lat="43.61576000" lon="10.95017000">
        <ele>51.000000</ele>
        <time>2010-01-01T03:04:07Z</time>
      </trkpt>
      <trkpt lat="43.61600000" lon="10.95022000">
        <ele>51.000000</ele>
        <time>2010-01-01T03:04:16Z</time>
      </trkpt>
      <trkpt lat="43.61646000" lon="10.95019000">
        <ele>52.000000</ele>
        <time>2010-01-01T03:04:35Z</time>
      </trkpt>
      <trkpt lat="43.61685000" lon="10.95003000">
        <ele>51.000000</ele>
        <time>2010-01-01T03:04:51Z</time>
      </trkpt>
      <trkpt lat="43.61809000" lon="10.94878000">
        <ele>48.000000</ele>
        <time>2010-01-01T03:05:53Z</time>
      </trkpt>
      <trkpt lat="43.61849000" lon="10.94836000">
        <ele>46.000000</ele>
        <time>2010-01-01T03:06:13Z</time>
      </trkpt>
      <trkpt lat="43.61872000" lon="10.94835000">
        <ele>46.000000</ele>
        <time>2010-01-01T03:06:22Z</time>
      </trkpt>
      <trkpt lat="43.61886000" lon="10.94845000">
        <ele>47.000000</ele>
        <time>2010-01-01T03:06:28Z</time>
      </trkpt>
      <trkpt lat="43.61971230" lon="10.94959250">
        <ele>47.000000</ele>
        <time>2010-01-01T03:07:16Z</time>
      </trkpt>
      <trkpt lat="43.62184000" lon="10.94889000">
        <ele>47.000000</ele>
        <time>2010-01-01T03:08:43Z</time>
      </trkpt>
      <trkpt lat="43.62619000" lon="10.94748000">
        <ele>44.000000</ele>
        <time>2010-01-01T03:11:42Z</time>
      </trkpt>
      <trkpt lat="43.62932000" lon="10.94645000">
        <ele>47.000000</ele>
        <time>2010-01-01T03:13:51Z</time>
      </trkpt>
      <trkpt lat="43.63272000" lon="10.94432000">
        <ele>48.000000</ele>
        <time>2010-01-01T03:16:20Z</time>
      </trkpt>
      <trkpt lat="43.63322000" lon="10.94414000">
        <ele>46.000000</ele>
        <time>2010-01-01T03:16:41Z</time>
      </trkpt>
      <trkpt lat="43.63717000" lon="10.94227000">
        <ele>42.000000</ele>
        <time>2010-01-01T03:19:28Z</time>
      </trkpt>
      <trkpt lat="43.63953000" lon="10.94108000">
        <ele>43.000000</ele>
        <time>2010-01-01T03:21:09Z</time>
      </trkpt>
      <trkpt lat="43.64326000" lon="10.93786000">
        <ele>44.000000</ele>
        <time>2010-01-01T03:24:05Z</time>
      </trkpt>
      <trkpt lat="43.64701000" lon="10.93462000">
        <ele>43.000000</ele>
        <time>2010-01-01T03:27:02Z</time>
      </trkpt>
      <trkpt lat="43.64937000" lon="10.93256000">
        <ele>42.000000</ele>
        <time>2010-01-01T03:28:54Z</time>
      </trkpt>
      <trkpt lat="43.65005000" lon="10.93169000">
        <ele>41.000000</ele>
        <time>2010-01-01T03:29:31Z</time>
      </trkpt>
      <trkpt lat="43.65019000" lon="10.93144000">
        <ele>42.000000</ele>
        <time>2010-01-01T03:29:40Z</time>
      </trkpt>
      <trkpt lat="43.65261000" lon="10.92596000">
        <ele>42.000000</ele>
        <time>2010-01-01T03:32:46Z</time>
      </trkpt>
      <trkpt lat="43.65271000" lon="10.92567000">
        <ele>43.000000</ele>
        <time>2010-01-01T03:32:55Z</time>
      </trkpt>
      <trkpt lat="43.65289000" lon="10.92460000">
        <ele>50.000000</ele>
        <time>2010-01-01T03:33:27Z</time>
      </trkpt>
      <trkpt lat="43.65283000" lon="10.92374000">
        <ele>48.000000</ele>
        <time>2010-01-01T03:33:52Z</time>
      </trkpt>
      <trkpt lat="43.65284000" lon="10.92354000">
        <ele>48.000000</ele>
        <time>2010-01-01T03:33:58Z</time>
      </trkpt>
      <trkpt lat="43.65293000" lon="10.92339000">
        <ele>48.000000</ele>
        <time>2010-01-01T03:34:03Z</time>
      </trkpt>
      <trkpt lat="43.65377000" lon="10.92257000">
        <ele>44.000000</ele>
        <time>2010-01-01T03:34:45Z</time>
      </trkpt>
      <trkpt lat="43.65514000" lon="10.92186000">
        <ele>44.000000</ele>
        <time>2010-01-01T03:35:43Z</time>
      </trkpt>
      <trkpt lat="43.65546000" lon="10.92158000">
        <ele>45.000000</ele>
        <time>2010-01-01T03:35:58Z</time>
      </trkpt>
      <trkpt lat="43.65600420" lon="10.92095190">
        <ele>44.000000</ele>
        <time>2010-01-01T03:36:27Z</time>
      </trkpt>
      <trkpt lat="43.65616000" lon="10.92050000">
        <ele>42.000000</ele>
        <time>2010-01-01T03:36:41Z</time>
      </trkpt>
      <trkpt lat="43.65626000" lon="10.91997000">
        <ele>41.000000</ele>
        <time>2010-01-01T03:36:57Z</time>
      </trkpt>
      <trkpt lat="43.65635000" lon="10.91975000">
        <ele>40.000000</ele>
        <time>2010-01-01T03:37:04Z</time>
      </trkpt>
      <trkpt lat="43.65647000" lon="10.91960000">
        <ele>38.000000</ele>
        <time>2010-01-01T03:37:11Z</time>
      </trkpt>
      <trkpt lat="43.65662000" lon="10.91950000">
        <ele>37.000000</ele>
        <time>2010-01-01T03:37:17Z</time>
      </trkpt>
      <trkpt lat="43.65771000" lon="10.91905000">
        <ele>37.000000</ele>
        <time>2010-01-01T03:38:03Z</time>
      </trkpt>
      <trkpt lat="43.65855000" lon="10.91917000">
        <ele>37.000000</ele>
        <time>2010-01-01T03:38:37Z</time>
      </trkpt>
      <trkpt lat="43.65875200" lon="10.91917090">
        <ele>37.000000</ele>
        <time>2010-01-01T03:38:45Z</time>
      </trkpt>
      <trkpt lat="43.65894000" lon="10.91902000">
        <ele>37.000000</ele>
        <time>2010-01-01T03:38:54Z</time>
      </trkpt>
      <trkpt lat="43.65999000" lon="10.91785000">
        <ele>40.000000</ele>
        <time>2010-01-01T03:39:48Z</time>
      </trkpt>
      <trkpt lat="43.66033000" lon="10.91760000">
        <ele>40.000000</ele>
        <time>2010-01-01T03:40:03Z</time>
      </trkpt>
      <trkpt lat="43.66160000" lon="10.91714000">
        <ele>40.000000</ele>
        <time>2010-01-01T03:40:56Z</time>
      </trkpt>
      <trkpt lat="43.66183000" lon="10.91692000">
        <ele>39.000000</ele>
        <time>2010-01-01T03:41:07Z</time>
      </trkpt>
      <trkpt lat="43.66214000" lon="10.91620000">
        <ele>38.000000</ele>
        <time>2010-01-01T03:41:31Z</time>
      </trkpt>
      <trkpt lat="43.66260000" lon="10.91548000">
        <ele>36.000000</ele>
        <time>2010-01-01T03:41:59Z</time>
      </trkpt>
      <trkpt lat="43.66360000" lon="10.91436000">
        <ele>34.000000</ele>
        <time>2010-01-01T03:42:50Z</time>
      </trkpt>
      <trkpt lat="43.66375000" lon="10.91393000">
        <ele>35.000000</ele>
        <time>2010-01-01T03:43:04Z</time>
      </trkpt>
      <trkpt lat="43.66371000" lon="10.91255000">
        <ele>42.000000</ele>
        <time>2010-01-01T03:43:44Z</time>
      </trkpt>
      <trkpt lat="43.66365000" lon="10.91225000">
        <ele>45.000000</ele>
        <time>2010-01-01T03:43:53Z</time>
      </trkpt>
      <trkpt lat="43.66350000" lon="10.91203000">
        <ele>47.000000</ele>
        <time>2010-01-01T03:44:02Z</time>
      </trkpt>
      <trkpt lat="43.66319940" lon="10.91168760">
        <ele>51.000000</ele>
        <time>2010-01-01T03:44:18Z</time>
      </trkpt>
      <trkpt lat="43.66308000" lon="10.91138000">
        <ele>53.000000</ele>
        <time>2010-01-01T03:44:28Z</time>
      </trkpt>
      <trkpt lat="43.66287000" lon="10.91044000">
        <ele>60.000000</ele>
        <time>2010-01-01T03:44:56Z</time>
      </trkpt>
      <trkpt lat="43.66272000" lon="10.91004000">
        <ele>60.000000</ele>
        <time>2010-01-01T03:45:09Z</time>
      </trkpt>
      <trkpt lat="43.66245000" lon="10.90954000">
        <ele>63.000000</ele>
        <time>2010-01-01T03:45:27Z</time>
      </trkpt>
      <trkpt lat="43.66225000" lon="10.90890000">
        <ele>70.000000</ele>
        <time>2010-01-01T03:45:47Z</time>
      </trkpt>
      <trkpt lat="43.66214000" lon="10.90806000">
        <ele>78.000000</ele>
        <time>2010-01-01T03:46:12Z</time>
      </trkpt>
      <trkpt lat="43.66207000" lon="10.90790000">
        <ele>77.000000</ele>
        <time>2010-01-01T03:46:18Z</time>
      </trkpt>
      <trkpt lat="43.66148000" lon="10.90725000">
        <ele>77.000000</ele>
        <time>2010-01-01T03:46:48Z</time>
      </trkpt>
      <trkpt lat="43.66120470" lon="10.90685960">
        <ele>80.000000</ele>
        <time>2010-01-01T03:47:04Z</time>
      </trkpt>
      <trkpt lat="43.66058380" lon="10.90446710">
        <ele>89.000000</ele>
        <time>2010-01-01T03:48:17Z</time>
      </trkpt>
      <trkpt lat="43.66048000" lon="10.90389000">
        <ele>91.000000</ele>
        <time>2010-01-01T03:48:34Z</time>
      </trkpt>
      <trkpt lat="43.66053720" lon="10.90273970">
        <ele>105.00000</ele>
        <time>2010-01-01T03:49:08Z</time>
      </trkpt>
      <trkpt lat="43.66013000" lon="10.90054000">
        <ele>126.00000</ele>
        <time>2010-01-01T03:50:14Z</time>
      </trkpt>
      <trkpt lat="43.65998000" lon="10.90023000">
        <ele>131.00000</ele>
        <time>2010-01-01T03:50:24Z</time>
      </trkpt>
      <trkpt lat="43.65989000" lon="10.89990000">
        <ele>135.00000</ele>
        <time>2010-01-01T03:50:35Z</time>
      </trkpt>
      <trkpt lat="43.65993000" lon="10.89960000">
        <ele>137.00000</ele>
        <time>2010-01-01T03:50:43Z</time>
      </trkpt>
      <trkpt lat="43.66005000" lon="10.89941000">
        <ele>138.00000</ele>
        <time>2010-01-01T03:50:51Z</time>
      </trkpt>
      <trkpt lat="43.66028000" lon="10.89926000">
        <ele>141.00000</ele>
        <time>2010-01-01T03:51:01Z</time>
      </trkpt>
      <trkpt lat="43.66122000" lon="10.89886000">
        <ele>146.00000</ele>
        <time>2010-01-01T03:51:40Z</time>
      </trkpt>
      <trkpt lat="43.66154000" lon="10.89879000">
        <ele>147.00000</ele>
        <time>2010-01-01T03:51:53Z</time>
      </trkpt>
      <trkpt lat="43.66276000" lon="10.89877000">
        <ele>149.00000</ele>
        <time>2010-01-01T03:52:42Z</time>
      </trkpt>
      <trkpt lat="43.66324000" lon="10.89882000">
        <ele>149.00000</ele>
        <time>2010-01-01T03:53:01Z</time>
      </trkpt>
      <trkpt lat="43.66374000" lon="10.89865000">
        <ele>147.00000</ele>
        <time>2010-01-01T03:53:22Z</time>
      </trkpt>
      <trkpt lat="43.66593000" lon="10.89755000">
        <ele>137.00000</ele>
        <time>2010-01-01T03:54:55Z</time>
      </trkpt>
      <trkpt lat="43.66614000" lon="10.89746000">
        <ele>135.00000</ele>
        <time>2010-01-01T03:55:04Z</time>
      </trkpt>
      <trkpt lat="43.66684000" lon="10.89730000">
        <ele>128.00000</ele>
        <time>2010-01-01T03:55:32Z</time>
      </trkpt>
      <trkpt lat="43.66762000" lon="10.89723000">
        <ele>134.00000</ele>
        <time>2010-01-01T03:56:04Z</time>
      </trkpt>
      <trkpt lat="43.66785000" lon="10.89716000">
        <ele>134.00000</ele>
        <time>2010-01-01T03:56:13Z</time>
      </trkpt>
      <trkpt lat="43.66803000" lon="10.89707000">
        <ele>133.00000</ele>
        <time>2010-01-01T03:56:21Z</time>
      </trkpt>
      <trkpt lat="43.66840000" lon="10.89680000">
        <ele>138.00000</ele>
        <time>2010-01-01T03:56:38Z</time>
      </trkpt>
      <trkpt lat="43.66951000" lon="10.89586000">
        <ele>159.00000</ele>
        <time>2010-01-01T03:57:30Z</time>
      </trkpt>
      <trkpt lat="43.66987000" lon="10.89538000">
        <ele>154.00000</ele>
        <time>2010-01-01T03:57:50Z</time>
      </trkpt>
      <trkpt lat="43.67022000" lon="10.89464000">
        <ele>145.00000</ele>
        <time>2010-01-01T03:58:15Z</time>
      </trkpt>
      <trkpt lat="43.67105000" lon="10.89304000">
        <ele>141.00000</ele>
        <time>2010-01-01T03:59:12Z</time>
      </trkpt>
      <trkpt lat="43.67151000" lon="10.89238000">
        <ele>141.00000</ele>
        <time>2010-01-01T03:59:39Z</time>
      </trkpt>
      <trkpt lat="43.67171000" lon="10.89198000">
        <ele>139.00000</ele>
        <time>2010-01-01T03:59:53Z</time>
      </trkpt>
      <trkpt lat="43.67177000" lon="10.89167000">
        <ele>138.00000</ele>
        <time>2010-01-01T04:00:02Z</time>
      </trkpt>
      <trkpt lat="43.67189000" lon="10.89034000">
        <ele>139.00000</ele>
        <time>2010-01-01T04:00:41Z</time>
      </trkpt>
      <trkpt lat="43.67194000" lon="10.89009000">
        <ele>141.00000</ele>
        <time>2010-01-01T04:00:49Z</time>
      </trkpt>
      <trkpt lat="43.67204000" lon="10.88981000">
        <ele>145.00000</ele>
        <time>2010-01-01T04:00:58Z</time>
      </trkpt>
      <trkpt lat="43.67260000" lon="10.88894000">
        <ele>152.00000</ele>
        <time>2010-01-01T04:01:31Z</time>
      </trkpt>
      <trkpt lat="43.67280000" lon="10.88853000">
        <ele>152.00000</ele>
        <time>2010-01-01T04:01:46Z</time>
      </trkpt>
      <trkpt lat="43.67288000" lon="10.88825000">
        <ele>151.00000</ele>
        <time>2010-01-01T04:01:54Z</time>
      </trkpt>
      <trkpt lat="43.67282000" lon="10.88766000">
        <ele>150.00000</ele>
        <time>2010-01-01T04:02:12Z</time>
      </trkpt>
      <trkpt lat="43.67271000" lon="10.88723000">
        <ele>149.00000</ele>
        <time>2010-01-01T04:02:25Z</time>
      </trkpt>
      <trkpt lat="43.67270000" lon="10.88706000">
        <ele>147.00000</ele>
        <time>2010-01-01T04:02:30Z</time>
      </trkpt>
      <trkpt lat="43.67274000" lon="10.88683000">
        <ele>143.00000</ele>
        <time>2010-01-01T04:02:37Z</time>
      </trkpt>
      <trkpt lat="43.67297000" lon="10.88610000">
        <ele>132.00000</ele>
        <time>2010-01-01T04:03:00Z</time>
      </trkpt>
      <trkpt lat="43.67304000" lon="10.88576000">
        <ele>133.00000</ele>
        <time>2010-01-01T04:03:10Z</time>
      </trkpt>
      <trkpt lat="43.67310000" lon="10.88398000">
        <ele>140.00000</ele>
        <time>2010-01-01T04:04:01Z</time>
      </trkpt>
      <trkpt lat="43.67319000" lon="10.88373000">
        <ele>141.00000</ele>
        <time>2010-01-01T04:04:10Z</time>
      </trkpt>
      <trkpt lat="43.67370000" lon="10.88267000">
        <ele>146.00000</ele>
        <time>2010-01-01T04:04:46Z</time>
      </trkpt>
      <trkpt lat="43.67379000" lon="10.88243000">
        <ele>147.00000</ele>
        <time>2010-01-01T04:04:54Z</time>
      </trkpt>
      <trkpt lat="43.67385000" lon="10.88125000">
        <ele>150.00000</ele>
        <time>2010-01-01T04:05:28Z</time>
      </trkpt>
      <trkpt lat="43.67383000" lon="10.88098000">
        <ele>152.00000</ele>
        <time>2010-01-01T04:05:36Z</time>
      </trkpt>
      <trkpt lat="43.67364000" lon="10.88033000">
        <ele>159.00000</ele>
        <time>2010-01-01T04:05:57Z</time>
      </trkpt>
      <trkpt lat="43.67398000" lon="10.87919000">
        <ele>153.00000</ele>
        <time>2010-01-01T04:06:32Z</time>
      </trkpt>
      <trkpt lat="43.67415000" lon="10.87882000">
        <ele>156.00000</ele>
        <time>2010-01-01T04:06:45Z</time>
      </trkpt>
      <trkpt lat="43.67423000" lon="10.87854000">
        <ele>158.00000</ele>
        <time>2010-01-01T04:06:54Z</time>
      </trkpt>
      <trkpt lat="43.67430000" lon="10.87807000">
        <ele>160.00000</ele>
        <time>2010-01-01T04:07:08Z</time>
      </trkpt>
      <trkpt lat="43.67450000" lon="10.87686000">
        <ele>152.00000</ele>
        <time>2010-01-01T04:07:44Z</time>
      </trkpt>
      <trkpt lat="43.67456000" lon="10.87657000">
        <ele>150.00000</ele>
        <time>2010-01-01T04:07:52Z</time>
      </trkpt>
      <trkpt lat="43.67479000" lon="10.87586000">
        <ele>145.00000</ele>
        <time>2010-01-01T04:08:15Z</time>
      </trkpt>
      <trkpt lat="43.67487000" lon="10.87550000">
        <ele>143.00000</ele>
        <time>2010-01-01T04:08:26Z</time>
      </trkpt>
      <trkpt lat="43.67487000" lon="10.87512000">
        <ele>142.00000</ele>
        <time>2010-01-01T04:08:37Z</time>
      </trkpt>
      <trkpt lat="43.67478000" lon="10.87423000">
        <ele>141.00000</ele>
        <time>2010-01-01T04:09:03Z</time>
      </trkpt>
      <trkpt lat="43.67475000" lon="10.87341000">
        <ele>138.00000</ele>
        <time>2010-01-01T04:09:27Z</time>
      </trkpt>
      <trkpt lat="43.67462000" lon="10.87261000">
        <ele>134.00000</ele>
        <time>2010-01-01T04:09:50Z</time>
      </trkpt>
      <trkpt lat="43.67464000" lon="10.87188000">
        <ele>125.00000</ele>
        <time>2010-01-01T04:10:11Z</time>
      </trkpt>
      <trkpt lat="43.67455000" lon="10.87092000">
        <ele>122.00000</ele>
        <time>2010-01-01T04:10:39Z</time>
      </trkpt>
      <trkpt lat="43.67436000" lon="10.87007000">
        <ele>128.00000</ele>
        <time>2010-01-01T04:11:05Z</time>
      </trkpt>
      <trkpt lat="43.67429000" lon="10.86964000">
        <ele>131.00000</ele>
        <time>2010-01-01T04:11:18Z</time>
      </trkpt>
      <trkpt lat="43.67431000" lon="10.86888000">
        <ele>135.00000</ele>
        <time>2010-01-01T04:11:40Z</time>
      </trkpt>
      <trkpt lat="43.67433000" lon="10.86873000">
        <ele>135.00000</ele>
        <time>2010-01-01T04:11:44Z</time>
      </trkpt>
      <trkpt lat="43.67455000" lon="10.86796000">
        <ele>132.00000</ele>
        <time>2010-01-01T04:12:08Z</time>
      </trkpt>
      <trkpt lat="43.67466000" lon="10.86743000">
        <ele>127.00000</ele>
        <time>2010-01-01T04:12:24Z</time>
      </trkpt>
      <trkpt lat="43.67472000" lon="10.86693000">
        <ele>124.00000</ele>
        <time>2010-01-01T04:12:39Z</time>
      </trkpt>
      <trkpt lat="43.67563000" lon="10.86513000">
        <ele>142.00000</ele>
        <time>2010-01-01T04:13:43Z</time>
      </trkpt>
      <trkpt lat="43.67573000" lon="10.86501000">
        <ele>141.00000</ele>
        <time>2010-01-01T04:13:48Z</time>
      </trkpt>
      <trkpt lat="43.67672000" lon="10.86468000">
        <ele>142.00000</ele>
        <time>2010-01-01T04:14:29Z</time>
      </trkpt>
      <trkpt lat="43.67691000" lon="10.86460000">
        <ele>145.00000</ele>
        <time>2010-01-01T04:14:37Z</time>
      </trkpt>
      <trkpt lat="43.67713000" lon="10.86444000">
        <ele>148.00000</ele>
        <time>2010-01-01T04:14:47Z</time>
      </trkpt>
      <trkpt lat="43.67786000" lon="10.86380000">
        <ele>142.00000</ele>
        <time>2010-01-01T04:15:21Z</time>
      </trkpt>
      <trkpt lat="43.67803000" lon="10.86371000">
        <ele>138.00000</ele>
        <time>2010-01-01T04:15:28Z</time>
      </trkpt>
      <trkpt lat="43.67826000" lon="10.86367000">
        <ele>132.00000</ele>
        <time>2010-01-01T04:15:38Z</time>
      </trkpt>
      <trkpt lat="43.67836000" lon="10.86359000">
        <ele>130.00000</ele>
        <time>2010-01-01T04:15:42Z</time>
      </trkpt>
      <trkpt lat="43.67839000" lon="10.86341000">
        <ele>128.00000</ele>
        <time>2010-01-01T04:15:48Z</time>
      </trkpt>
      <trkpt lat="43.67838000" lon="10.86329000">
        <ele>128.00000</ele>
        <time>2010-01-01T04:15:51Z</time>
      </trkpt>
      <trkpt lat="43.67838000" lon="10.86246000">
        <ele>125.00000</ele>
        <time>2010-01-01T04:16:15Z</time>
      </trkpt>
      <trkpt lat="43.67844000" lon="10.86234000">
        <ele>121.00000</ele>
        <time>2010-01-01T04:16:19Z</time>
      </trkpt>
      <trkpt lat="43.67871000" lon="10.86225000">
        <ele>112.00000</ele>
        <time>2010-01-01T04:16:31Z</time>
      </trkpt>
      <trkpt lat="43.67903000" lon="10.86193000">
        <ele>108.00000</ele>
        <time>2010-01-01T04:16:46Z</time>
      </trkpt>
      <trkpt lat="43.67920000" lon="10.86184000">
        <ele>109.00000</ele>
        <time>2010-01-01T04:16:54Z</time>
      </trkpt>
      <trkpt lat="43.67933000" lon="10.86182000">
        <ele>110.00000</ele>
        <time>2010-01-01T04:16:59Z</time>
      </trkpt>
      <trkpt lat="43.67943780" lon="10.86188970">
        <ele>112.00000</ele>
        <time>2010-01-01T04:17:04Z</time>
      </trkpt>
      <trkpt lat="43.67979480" lon="10.86225980">
        <ele>115.00000</ele>
        <time>2010-01-01T04:17:22Z</time>
      </trkpt>
      <trkpt lat="43.68024090" lon="10.86252800">
        <ele>119.00000</ele>
        <time>2010-01-01T04:17:41Z</time>
      </trkpt>
      <trkpt lat="43.68040770" lon="10.86252270">
        <ele>120.00000</ele>
        <time>2010-01-01T04:17:48Z</time>
      </trkpt>
      <trkpt lat="43.68057840" lon="10.86244760">
        <ele>122.00000</ele>
        <time>2010-01-01T04:17:55Z</time>
      </trkpt>
      <trkpt lat="43.68084230" lon="10.86215250">
        <ele>127.00000</ele>
        <time>2010-01-01T04:18:08Z</time>
      </trkpt>
      <trkpt lat="43.68112160" lon="10.86194330">
        <ele>127.00000</ele>
        <time>2010-01-01T04:18:21Z</time>
      </trkpt>
      <trkpt lat="43.68115260" lon="10.86180920">
        <ele>128.00000</ele>
        <time>2010-01-01T04:18:25Z</time>
      </trkpt>
      <trkpt lat="43.68105560" lon="10.86177700">
        <ele>130.00000</ele>
        <time>2010-01-01T04:18:29Z</time>
      </trkpt>
      <trkpt lat="43.68053580" lon="10.86220620">
        <ele>131.00000</ele>
        <time>2010-01-01T04:18:53Z</time>
      </trkpt>
      <trkpt lat="43.68039610" lon="10.86226520">
        <ele>128.00000</ele>
        <time>2010-01-01T04:18:59Z</time>
      </trkpt>
      <trkpt lat="43.68030690" lon="10.86223300">
        <ele>128.00000</ele>
        <time>2010-01-01T04:19:03Z</time>
      </trkpt>
      <trkpt lat="43.68025260" lon="10.86211500">
        <ele>130.00000</ele>
        <time>2010-01-01T04:19:07Z</time>
      </trkpt>
      <trkpt lat="43.68026030" lon="10.86195400">
        <ele>134.00000</ele>
        <time>2010-01-01T04:19:12Z</time>
      </trkpt>
      <trkpt lat="43.68030000" lon="10.86178000">
        <ele>135.00000</ele>
        <time>2010-01-01T04:19:17Z</time>
      </trkpt>
      <trkpt lat="43.68051000" lon="10.86138000">
        <ele>136.00000</ele>
        <time>2010-01-01T04:19:31Z</time>
      </trkpt>
      <trkpt lat="43.68057000" lon="10.86115000">
        <ele>136.00000</ele>
        <time>2010-01-01T04:19:38Z</time>
      </trkpt>
      <trkpt lat="43.68062000" lon="10.86011000">
        <ele>131.00000</ele>
        <time>2010-01-01T04:20:09Z</time>
      </trkpt>
      <trkpt lat="43.68059000" lon="10.85997000">
        <ele>129.00000</ele>
        <time>2010-01-01T04:20:13Z</time>
      </trkpt>
      <trkpt lat="43.68056000" lon="10.85972000">
        <ele>127.00000</ele>
        <time>2010-01-01T04:20:20Z</time>
      </trkpt>
      <trkpt lat="43.68055000" lon="10.85893000">
        <ele>125.00000</ele>
        <time>2010-01-01T04:20:43Z</time>
      </trkpt>
      <trkpt lat="43.68049000" lon="10.85829000">
        <ele>127.00000</ele>
        <time>2010-01-01T04:21:02Z</time>
      </trkpt>
      <trkpt lat="43.68040000" lon="10.85785000">
        <ele>126.00000</ele>
        <time>2010-01-01T04:21:15Z</time>
      </trkpt>
      <trkpt lat="43.68005000" lon="10.85702000">
        <ele>124.00000</ele>
        <time>2010-01-01T04:21:43Z</time>
      </trkpt>
      <trkpt lat="43.67998000" lon="10.85677000">
        <ele>125.00000</ele>
        <time>2010-01-01T04:21:50Z</time>
      </trkpt>
      <trkpt lat="43.67993000" lon="10.85651000">
        <ele>122.00000</ele>
        <time>2010-01-01T04:21:58Z</time>
      </trkpt>
      <trkpt lat="43.67992000" lon="10.85634000">
        <ele>120.00000</ele>
        <time>2010-01-01T04:22:03Z</time>
      </trkpt>
      <trkpt lat="43.67994000" lon="10.85616000">
        <ele>119.00000</ele>
        <time>2010-01-01T04:22:08Z</time>
      </trkpt>
      <trkpt lat="43.68000000" lon="10.85591000">
        <ele>121.00000</ele>
        <time>2010-01-01T04:22:16Z</time>
      </trkpt>
      <trkpt lat="43.68011000" lon="10.85567000">
        <ele>122.00000</ele>
        <time>2010-01-01T04:22:24Z</time>
      </trkpt>
      <trkpt lat="43.68017000" lon="10.85564000">
        <ele>122.00000</ele>
        <time>2010-01-01T04:22:27Z</time>
      </trkpt>
      <trkpt lat="43.68029000" lon="10.85549000">
        <ele>124.00000</ele>
        <time>2010-01-01T04:22:33Z</time>
      </trkpt>
      <trkpt lat="43.68037000" lon="10.85533000">
        <ele>126.00000</ele>
        <time>2010-01-01T04:22:39Z</time>
      </trkpt>
      <trkpt lat="43.68054000" lon="10.85524000">
        <ele>128.00000</ele>
        <time>2010-01-01T04:22:46Z</time>
      </trkpt>
      <trkpt lat="43.68077000" lon="10.85509000">
        <ele>131.00000</ele>
        <time>2010-01-01T04:22:56Z</time>
      </trkpt>
      <trkpt lat="43.68097000" lon="10.85490000">
        <ele>136.00000</ele>
        <time>2010-01-01T04:23:06Z</time>
      </trkpt>
      <trkpt lat="43.68113000" lon="10.85479000">
        <ele>139.00000</ele>
        <time>2010-01-01T04:23:13Z</time>
      </trkpt>
      <trkpt lat="43.68146000" lon="10.85456000">
        <ele>144.00000</ele>
        <time>2010-01-01T04:23:28Z</time>
      </trkpt>
      <trkpt lat="43.68157000" lon="10.85446000">
        <ele>146.00000</ele>
        <time>2010-01-01T04:23:33Z</time>
      </trkpt>
      <trkpt lat="43.68167000" lon="10.85431000">
        <ele>148.00000</ele>
        <time>2010-01-01T04:23:39Z</time>
      </trkpt>
      <trkpt lat="43.68177000" lon="10.85408000">
        <ele>151.00000</ele>
        <time>2010-01-01T04:23:47Z</time>
      </trkpt>
      <trkpt lat="43.68179000" lon="10.85406000">
        <ele>151.00000</ele>
        <time>2010-01-01T04:23:48Z</time>
      </trkpt>
      <trkpt lat="43.68187000" lon="10.85396000">
        <ele>151.00000</ele>
        <time>2010-01-01T04:23:52Z</time>
      </trkpt>
      <trkpt lat="43.68194000" lon="10.85385000">
        <ele>152.00000</ele>
        <time>2010-01-01T04:23:57Z</time>
      </trkpt>
      <trkpt lat="43.68204000" lon="10.85374000">
        <ele>151.00000</ele>
        <time>2010-01-01T04:24:02Z</time>
      </trkpt>
      <trkpt lat="43.68208000" lon="10.85360000">
        <ele>153.00000</ele>
        <time>2010-01-01T04:24:06Z</time>
      </trkpt>
      <trkpt lat="43.68222000" lon="10.85325000">
        <ele>152.00000</ele>
        <time>2010-01-01T04:24:18Z</time>
      </trkpt>
      <trkpt lat="43.68225000" lon="10.85304000">
        <ele>151.00000</ele>
        <time>2010-01-01T04:24:24Z</time>
      </trkpt>
      <trkpt lat="43.68221000" lon="10.85283000">
        <ele>150.00000</ele>
        <time>2010-01-01T04:24:30Z</time>
      </trkpt>
      <trkpt lat="43.68215000" lon="10.85268000">
        <ele>151.00000</ele>
        <time>2010-01-01T04:24:35Z</time>
      </trkpt>
      <trkpt lat="43.68199000" lon="10.85249000">
        <ele>153.00000</ele>
        <time>2010-01-01T04:24:44Z</time>
      </trkpt>
      <trkpt lat="43.68190000" lon="10.85243000">
        <ele>153.00000</ele>
        <time>2010-01-01T04:24:48Z</time>
      </trkpt>
      <trkpt lat="43.68163000" lon="10.85239000">
        <ele>154.00000</ele>
        <time>2010-01-01T04:24:58Z</time>
      </trkpt>
      <trkpt lat="43.68140000" lon="10.85241000">
        <ele>159.00000</ele>
        <time>2010-01-01T04:25:08Z</time>
      </trkpt>
      <trkpt lat="43.68136000" lon="10.85229000">
        <ele>155.00000</ele>
        <time>2010-01-01T04:25:11Z</time>
      </trkpt>
      <trkpt lat="43.68113000" lon="10.85212000">
        <ele>153.00000</ele>
        <time>2010-01-01T04:25:22Z</time>
      </trkpt>
      <trkpt lat="43.68084000" lon="10.85182000">
        <ele>152.00000</ele>
        <time>2010-01-01T04:25:36Z</time>
      </trkpt>
      <trkpt lat="43.68062000" lon="10.85150000">
        <ele>150.00000</ele>
        <time>2010-01-01T04:25:49Z</time>
      </trkpt>
      <trkpt lat="43.68028750" lon="10.85131100">
        <ele>154.00000</ele>
        <time>2010-01-01T04:26:04Z</time>
      </trkpt>
      <trkpt lat="43.68006000" lon="10.85088000">
        <ele>149.00000</ele>
        <time>2010-01-01T04:26:19Z</time>
      </trkpt>
      <trkpt lat="43.67975000" lon="10.85000000">
        <ele>145.00000</ele>
        <time>2010-01-01T04:26:47Z</time>
      </trkpt>
      <trkpt lat="43.67980640" lon="10.84921360">
        <ele>146.00000</ele>
        <time>2010-01-01T04:27:10Z</time>
      </trkpt>
      <trkpt lat="43.68008000" lon="10.84879000">
        <ele>146.00000</ele>
        <time>2010-01-01T04:27:27Z</time>
      </trkpt>
      <trkpt lat="43.68003000" lon="10.84851000">
        <ele>149.00000</ele>
        <time>2010-01-01T04:27:35Z</time>
      </trkpt>
      <trkpt lat="43.68035000" lon="10.84807000">
        <ele>149.00000</ele>
        <time>2010-01-01T04:27:53Z</time>
      </trkpt>
      <trkpt lat="43.68134000" lon="10.84715000">
        <ele>150.00000</ele>
        <time>2010-01-01T04:28:41Z</time>
      </trkpt>
      <trkpt lat="43.68158000" lon="10.84684000">
        <ele>147.00000</ele>
        <time>2010-01-01T04:28:54Z</time>
      </trkpt>
      <trkpt lat="43.68173840" lon="10.84636500">
        <ele>141.00000</ele>
        <time>2010-01-01T04:29:09Z</time>
      </trkpt>
      <trkpt lat="43.68152500" lon="10.84627380">
        <ele>141.00000</ele>
        <time>2010-01-01T04:29:18Z</time>
      </trkpt>
      <trkpt lat="43.68137760" lon="10.84627380">
        <ele>141.00000</ele>
        <time>2010-01-01T04:29:24Z</time>
      </trkpt>
      <trkpt lat="43.68129620" lon="10.84638650">
        <ele>142.00000</ele>
        <time>2010-01-01T04:29:29Z</time>
      </trkpt>
      <trkpt lat="43.68126900" lon="10.84672450">
        <ele>146.00000</ele>
        <time>2010-01-01T04:29:38Z</time>
      </trkpt>
      <trkpt lat="43.68025640" lon="10.84771150">
        <ele>147.00000</ele>
        <time>2010-01-01T04:30:28Z</time>
      </trkpt>
      <trkpt lat="43.67979090" lon="10.84809780">
        <ele>149.00000</ele>
        <time>2010-01-01T04:30:50Z</time>
      </trkpt>
      <trkpt lat="43.67943400" lon="10.84829090">
        <ele>143.00000</ele>
        <time>2010-01-01T04:31:05Z</time>
      </trkpt>
      <trkpt lat="43.67923220" lon="10.84794750">
        <ele>142.00000</ele>
        <time>2010-01-01T04:31:18Z</time>
      </trkpt>
      <trkpt lat="43.67874340" lon="10.84772220">
        <ele>142.00000</ele>
        <time>2010-01-01T04:31:39Z</time>
      </trkpt>
      <trkpt lat="43.67844850" lon="10.84711610">
        <ele>143.00000</ele>
        <time>2010-01-01T04:32:00Z</time>
      </trkpt>
      <trkpt lat="43.67809940" lon="10.84659570">
        <ele>138.00000</ele>
        <time>2010-01-01T04:32:20Z</time>
      </trkpt>
      <trkpt lat="43.67666380" lon="10.84410660">
        <ele>134.00000</ele>
        <time>2010-01-01T04:33:52Z</time>
      </trkpt>
      <trkpt lat="43.67660950" lon="10.84348440">
        <ele>127.00000</ele>
        <time>2010-01-01T04:34:11Z</time>
      </trkpt>
      <trkpt lat="43.67667160" lon="10.84147810">
        <ele>126.00000</ele>
        <time>2010-01-01T04:35:09Z</time>
      </trkpt>
      <trkpt lat="43.67637670" lon="10.84090940">
        <ele>128.00000</ele>
        <time>2010-01-01T04:35:29Z</time>
      </trkpt>
      <trkpt lat="43.67600430" lon="10.84071630">
        <ele>124.00000</ele>
        <time>2010-01-01T04:35:45Z</time>
      </trkpt>
      <trkpt lat="43.67449110" lon="10.84094700">
        <ele>123.00000</ele>
        <time>2010-01-01T04:36:46Z</time>
      </trkpt>
      <trkpt lat="43.67417300" lon="10.84086120">
        <ele>127.00000</ele>
        <time>2010-01-01T04:36:59Z</time>
      </trkpt>
      <trkpt lat="43.67382380" lon="10.84060900">
        <ele>128.00000</ele>
        <time>2010-01-01T04:37:15Z</time>
      </trkpt>
      <trkpt lat="43.67274900" lon="10.83872070">
        <ele>127.00000</ele>
        <time>2010-01-01T04:38:24Z</time>
      </trkpt>
      <trkpt lat="43.67227950" lon="10.83827010">
        <ele>122.00000</ele>
        <time>2010-01-01T04:38:47Z</time>
      </trkpt>
      <trkpt lat="43.67162760" lon="10.83784100">
        <ele>117.00000</ele>
        <time>2010-01-01T04:39:16Z</time>
      </trkpt>
      <trkpt lat="43.67063430" lon="10.83790000">
        <ele>107.00000</ele>
        <time>2010-01-01T04:39:56Z</time>
      </trkpt>
      <trkpt lat="43.67026180" lon="10.83769080">
        <ele>108.00000</ele>
        <time>2010-01-01T04:40:12Z</time>
      </trkpt>
      <trkpt lat="43.66990480" lon="10.83794830">
        <ele>99.000000</ele>
        <time>2010-01-01T04:40:28Z</time>
      </trkpt>
      <trkpt lat="43.66903570" lon="10.83792680">
        <ele>91.000000</ele>
        <time>2010-01-01T04:41:03Z</time>
      </trkpt>
      <trkpt lat="43.66898910" lon="10.83827010">
        <ele>93.000000</ele>
        <time>2010-01-01T04:41:13Z</time>
      </trkpt>
      <trkpt lat="43.67043260" lon="10.83879590">
        <ele>86.000000</ele>
        <time>2010-01-01T04:42:13Z</time>
      </trkpt>
      <trkpt lat="43.67040930" lon="10.83903190">
        <ele>82.000000</ele>
        <time>2010-01-01T04:42:19Z</time>
      </trkpt>
      <trkpt lat="43.66979620" lon="10.83908550">
        <ele>74.000000</ele>
        <time>2010-01-01T04:42:44Z</time>
      </trkpt>
      <trkpt lat="43.66922190" lon="10.83917140">
        <ele>72.000000</ele>
        <time>2010-01-01T04:43:07Z</time>
      </trkpt>
      <trkpt lat="43.66884940" lon="10.83992240">
        <ele>64.000000</ele>
        <time>2010-01-01T04:43:34Z</time>
      </trkpt>
      <trkpt lat="43.66843030" lon="10.84005110">
        <ele>55.000000</ele>
        <time>2010-01-01T04:43:51Z</time>
      </trkpt>
      <trkpt lat="43.66776290" lon="10.83981510">
        <ele>52.000000</ele>
        <time>2010-01-01T04:44:18Z</time>
      </trkpt>
      <trkpt lat="43.66610980" lon="10.83764790">
        <ele>47.000000</ele>
        <time>2010-01-01T04:45:50Z</time>
      </trkpt>
      <trkpt lat="43.66421610" lon="10.83741180">
        <ele>45.000000</ele>
        <time>2010-01-01T04:47:06Z</time>
      </trkpt>
      <trkpt lat="43.66284240" lon="10.83540550">
        <ele>48.000000</ele>
        <time>2010-01-01T04:48:26Z</time>
      </trkpt>
      <trkpt lat="43.66266390" lon="10.83485840">
        <ele>48.000000</ele>
        <time>2010-01-01T04:48:43Z</time>
      </trkpt>
      <trkpt lat="43.66212830" lon="10.83187580">
        <ele>45.000000</ele>
        <time>2010-01-01T04:50:12Z</time>
      </trkpt>
      <trkpt lat="43.66114260" lon="10.82813140">
        <ele>43.000000</ele>
        <time>2010-01-01T04:52:07Z</time>
      </trkpt>
      <trkpt lat="43.66077010" lon="10.82621090">
        <ele>43.000000</ele>
        <time>2010-01-01T04:53:05Z</time>
      </trkpt>
      <trkpt lat="43.65965240" lon="10.82154390">
        <ele>44.000000</ele>
        <time>2010-01-01T04:55:27Z</time>
      </trkpt>
      <trkpt lat="43.65941170" lon="10.82086800">
        <ele>45.000000</ele>
        <time>2010-01-01T04:55:49Z</time>
      </trkpt>
      <trkpt lat="43.65740920" lon="10.81815360">
        <ele>46.000000</ele>
        <time>2010-01-01T04:57:41Z</time>
      </trkpt>
      <trkpt lat="43.65561610" lon="10.81652280">
        <ele>41.000000</ele>
        <time>2010-01-01T04:59:07Z</time>
      </trkpt>
      <trkpt lat="43.65387730" lon="10.81561080">
        <ele>37.000000</ele>
        <time>2010-01-01T05:00:22Z</time>
      </trkpt>
      <trkpt lat="43.65231700" lon="10.81446290">
        <ele>38.000000</ele>
        <time>2010-01-01T05:01:33Z</time>
      </trkpt>
      <trkpt lat="43.65187450" lon="10.81359380">
        <ele>39.000000</ele>
        <time>2010-01-01T05:02:03Z</time>
      </trkpt>
      <trkpt lat="43.64917300" lon="10.81172700">
        <ele>38.000000</ele>
        <time>2010-01-01T05:04:04Z</time>
      </trkpt>
      <trkpt lat="43.64776010" lon="10.81054680">
        <ele>41.000000</ele>
        <time>2010-01-01T05:05:10Z</time>
      </trkpt>
      <trkpt lat="43.64675860" lon="10.80963490">
        <ele>43.000000</ele>
        <time>2010-01-01T05:05:58Z</time>
      </trkpt>
      <trkpt lat="43.64633940" lon="10.80937740">
        <ele>47.000000</ele>
        <time>2010-01-01T05:06:17Z</time>
      </trkpt>
      <trkpt lat="43.64540000" lon="10.80825090">
        <ele>56.000000</ele>
        <time>2010-01-01T05:07:06Z</time>
      </trkpt>
      <trkpt lat="43.64465470" lon="10.80766080">
        <ele>59.000000</ele>
        <time>2010-01-01T05:07:41Z</time>
      </trkpt>
      <trkpt lat="43.64294660" lon="10.80681320">
        <ele>86.000000</ele>
        <time>2010-01-01T05:08:54Z</time>
      </trkpt>
      <trkpt lat="43.64276030" lon="10.80653420">
        <ele>83.000000</ele>
        <time>2010-01-01T05:09:05Z</time>
      </trkpt>
      <trkpt lat="43.64267490" lon="10.80620160">
        <ele>78.000000</ele>
        <time>2010-01-01T05:09:15Z</time>
      </trkpt>
      <trkpt lat="43.64289230" lon="10.80478540">
        <ele>75.000000</ele>
        <time>2010-01-01T05:09:57Z</time>
      </trkpt>
      <trkpt lat="43.64310190" lon="10.80416320">
        <ele>76.000000</ele>
        <time>2010-01-01T05:10:17Z</time>
      </trkpt>
      <trkpt lat="43.64376180" lon="10.80260750">
        <ele>76.000000</ele>
        <time>2010-01-01T05:11:09Z</time>
      </trkpt>
      <trkpt lat="43.64412670" lon="10.80164190">
        <ele>77.000000</ele>
        <time>2010-01-01T05:11:40Z</time>
      </trkpt>
      <trkpt lat="43.64387050" lon="10.79738250">
        <ele>65.000000</ele>
        <time>2010-01-01T05:13:44Z</time>
      </trkpt>
      <trkpt lat="43.64357550" lon="10.79596630">
        <ele>67.000000</ele>
        <time>2010-01-01T05:14:27Z</time>
      </trkpt>
      <trkpt lat="43.64353670" lon="10.79527970">
        <ele>66.000000</ele>
        <time>2010-01-01T05:14:47Z</time>
      </trkpt>
      <trkpt lat="43.64475560" lon="10.78833810">
        <ele>54.000000</ele>
        <time>2010-01-01T05:18:14Z</time>
      </trkpt>
      <trkpt lat="43.64480220" lon="10.78619240">
        <ele>53.000000</ele>
        <time>2010-01-01T05:19:16Z</time>
      </trkpt>
      <trkpt lat="43.64461580" lon="10.78422900">
        <ele>52.000000</ele>
        <time>2010-01-01T05:20:13Z</time>
      </trkpt>
      <trkpt lat="43.64253510" lon="10.78042030">
        <ele>58.000000</ele>
        <time>2010-01-01T05:22:32Z</time>
      </trkpt>
      <trkpt lat="43.64207700" lon="10.77932590">
        <ele>53.000000</ele>
        <time>2010-01-01T05:23:08Z</time>
      </trkpt>
      <trkpt lat="43.64231000" lon="10.77801700">
        <ele>52.000000</ele>
        <time>2010-01-01T05:23:47Z</time>
      </trkpt>
      <trkpt lat="43.64233330" lon="10.77579610">
        <ele>53.000000</ele>
        <time>2010-01-01T05:24:52Z</time>
      </trkpt>
      <trkpt lat="43.64249630" lon="10.77502360">
        <ele>54.000000</ele>
        <time>2010-01-01T05:25:15Z</time>
      </trkpt>
      <trkpt lat="43.64456930" lon="10.76994890">
        <ele>47.000000</ele>
        <time>2010-01-01T05:28:04Z</time>
      </trkpt>
      <trkpt lat="43.64783770" lon="10.76386570">
        <ele>44.000000</ele>
        <time>2010-01-01T05:31:43Z</time>
      </trkpt>
      <trkpt lat="43.64783000" lon="10.76327560">
        <ele>43.000000</ele>
        <time>2010-01-01T05:32:00Z</time>
      </trkpt>
      <trkpt lat="43.64560180" lon="10.76109760">
        <ele>42.000000</ele>
        <time>2010-01-01T05:33:49Z</time>
      </trkpt>
      <trkpt lat="43.64510500" lon="10.76082940">
        <ele>43.000000</ele>
        <time>2010-01-01T05:34:11Z</time>
      </trkpt>
      <trkpt lat="43.64375410" lon="10.76079720">
        <ele>45.000000</ele>
        <time>2010-01-01T05:35:05Z</time>
      </trkpt>
      <trkpt lat="43.64303200" lon="10.76112980">
        <ele>49.000000</ele>
        <time>2010-01-01T05:35:35Z</time>
      </trkpt>
      <trkpt lat="43.64250410" lon="10.76166620">
        <ele>51.000000</ele>
        <time>2010-01-01T05:36:02Z</time>
      </trkpt>
      <trkpt lat="43.64174320" lon="10.76223490">
        <ele>51.000000</ele>
        <time>2010-01-01T05:36:36Z</time>
      </trkpt>
      <trkpt lat="43.63873840" lon="10.76414460">
        <ele>52.000000</ele>
        <time>2010-01-01T05:38:49Z</time>
      </trkpt>
      <trkpt lat="43.63691370" lon="10.76612940">
        <ele>51.000000</ele>
        <time>2010-01-01T05:40:22Z</time>
      </trkpt>
      <trkpt lat="43.63508900" lon="10.76942320">
        <ele>52.000000</ele>
        <time>2010-01-01T05:42:22Z</time>
      </trkpt>
      <trkpt lat="43.63475510" lon="10.77027080">
        <ele>53.000000</ele>
        <time>2010-01-01T05:42:50Z</time>
      </trkpt>
      <trkpt lat="43.63425030" lon="10.77106470">
        <ele>53.000000</ele>
        <time>2010-01-01T05:43:20Z</time>
      </trkpt>
      <trkpt lat="43.63244100" lon="10.77307100">
        <ele>56.000000</ele>
        <time>2010-01-01T05:44:53Z</time>
      </trkpt>
      <trkpt lat="43.63206050" lon="10.77331780">
        <ele>59.000000</ele>
        <time>2010-01-01T05:45:10Z</time>
      </trkpt>
      <trkpt lat="43.62753320" lon="10.77476620">
        <ele>64.000000</ele>
        <time>2010-01-01T05:48:16Z</time>
      </trkpt>
      <trkpt lat="43.62589450" lon="10.77553860">
        <ele>69.000000</ele>
        <time>2010-01-01T05:49:25Z</time>
      </trkpt>
      <trkpt lat="43.62554500" lon="10.77552790">
        <ele>70.000000</ele>
        <time>2010-01-01T05:49:39Z</time>
      </trkpt>
      <trkpt lat="43.62479170" lon="10.77523820">
        <ele>67.000000</ele>
        <time>2010-01-01T05:50:11Z</time>
      </trkpt>
      <trkpt lat="43.62441120" lon="10.77520600">
        <ele>67.000000</ele>
        <time>2010-01-01T05:50:26Z</time>
      </trkpt>
      <trkpt lat="43.62148320" lon="10.77643990">
        <ele>65.000000</ele>
        <time>2010-01-01T05:52:28Z</time>
      </trkpt>
      <trkpt lat="43.62076080" lon="10.77711580">
        <ele>67.000000</ele>
        <time>2010-01-01T05:53:03Z</time>
      </trkpt>
      <trkpt lat="43.61991430" lon="10.77859640">
        <ele>73.000000</ele>
        <time>2010-01-01T05:53:58Z</time>
      </trkpt>
      <trkpt lat="43.61879580" lon="10.78094600">
        <ele>72.000000</ele>
        <time>2010-01-01T05:55:20Z</time>
      </trkpt>
      <trkpt lat="43.61761520" lon="10.78310250">
        <ele>73.000000</ele>
        <time>2010-01-01T05:56:38Z</time>
      </trkpt>
      <trkpt lat="43.61682290" lon="10.78403590">
        <ele>77.000000</ele>
        <time>2010-01-01T05:57:20Z</time>
      </trkpt>
      <trkpt lat="43.61529270" lon="10.78462600">
        <ele>78.000000</ele>
        <time>2010-01-01T05:58:23Z</time>
      </trkpt>
      <trkpt lat="43.61374700" lon="10.78589200">
        <ele>95.000000</ele>
        <time>2010-01-01T05:59:35Z</time>
      </trkpt>
      <trkpt lat="43.61276820" lon="10.78646060">
        <ele>96.000000</ele>
        <time>2010-01-01T06:00:18Z</time>
      </trkpt>
      <trkpt lat="43.61248860" lon="10.78651420">
        <ele>97.000000</ele>
        <time>2010-01-01T06:00:29Z</time>
      </trkpt>
      <trkpt lat="43.61224780" lon="10.78642840">
        <ele>101.00000</ele>
        <time>2010-01-01T06:00:39Z</time>
      </trkpt>
      <trkpt lat="43.61197590" lon="10.78642840">
        <ele>105.00000</ele>
        <time>2010-01-01T06:00:50Z</time>
      </trkpt>
      <trkpt lat="43.61187880" lon="10.78635330">
        <ele>108.00000</ele>
        <time>2010-01-01T06:00:54Z</time>
      </trkpt>
      <trkpt lat="43.61194100" lon="10.78621920">
        <ele>113.00000</ele>
        <time>2010-01-01T06:00:59Z</time>
      </trkpt>
      <trkpt lat="43.61251190" lon="10.78621380">
        <ele>107.00000</ele>
        <time>2010-01-01T06:01:22Z</time>
      </trkpt>
      <trkpt lat="43.61272160" lon="10.78610650">
        <ele>107.00000</ele>
        <time>2010-01-01T06:01:31Z</time>
      </trkpt>
      <trkpt lat="43.61356830" lon="10.78549500">
        <ele>111.00000</ele>
        <time>2010-01-01T06:02:09Z</time>
      </trkpt>
      <trkpt lat="43.61382850" lon="10.78501220">
        <ele>112.00000</ele>
        <time>2010-01-01T06:02:26Z</time>
      </trkpt>
      <trkpt lat="43.61379360" lon="10.78440070">
        <ele>114.00000</ele>
        <time>2010-01-01T06:02:44Z</time>
      </trkpt>
      <trkpt lat="43.61307120" lon="10.78371400">
        <ele>121.00000</ele>
        <time>2010-01-01T06:03:19Z</time>
      </trkpt>
      <trkpt lat="43.61275270" lon="10.78290930">
        <ele>122.00000</ele>
        <time>2010-01-01T06:03:46Z</time>
      </trkpt>
      <trkpt lat="43.61259730" lon="10.78289330">
        <ele>124.00000</ele>
        <time>2010-01-01T06:03:52Z</time>
      </trkpt>
      <trkpt lat="43.61250410" lon="10.78300590">
        <ele>126.00000</ele>
        <time>2010-01-01T06:03:57Z</time>
      </trkpt>
      <trkpt lat="43.61272940" lon="10.78416460">
        <ele>131.00000</ele>
        <time>2010-01-01T06:04:32Z</time>
      </trkpt>
      <trkpt lat="43.61265170" lon="10.78426120">
        <ele>135.00000</ele>
        <time>2010-01-01T06:04:36Z</time>
      </trkpt>
      <trkpt lat="43.61253520" lon="10.78423970">
        <ele>138.00000</ele>
        <time>2010-01-01T06:04:41Z</time>
      </trkpt>
      <trkpt lat="43.61225560" lon="10.78337600">
        <ele>141.00000</ele>
        <time>2010-01-01T06:05:08Z</time>
      </trkpt>
      <trkpt lat="43.61212350" lon="10.78329020">
        <ele>146.00000</ele>
        <time>2010-01-01T06:05:14Z</time>
      </trkpt>
      <trkpt lat="43.61206140" lon="10.78349940">
        <ele>153.00000</ele>
        <time>2010-01-01T06:05:20Z</time>
      </trkpt>
      <trkpt lat="43.61231770" lon="10.78443280">
        <ele>149.00000</ele>
        <time>2010-01-01T06:05:49Z</time>
      </trkpt>
      <trkpt lat="43.61230220" lon="10.78486200">
        <ele>148.00000</ele>
        <time>2010-01-01T06:06:02Z</time>
      </trkpt>
      <trkpt lat="43.61211570" lon="10.78503370">
        <ele>149.00000</ele>
        <time>2010-01-01T06:06:11Z</time>
      </trkpt>
      <trkpt lat="43.61087280" lon="10.78534480">
        <ele>157.00000</ele>
        <time>2010-01-01T06:07:01Z</time>
      </trkpt>
      <trkpt lat="43.61055440" lon="10.78506580">
        <ele>166.00000</ele>
        <time>2010-01-01T06:07:16Z</time>
      </trkpt>
      <trkpt lat="43.61029020" lon="10.78505510">
        <ele>163.00000</ele>
        <time>2010-01-01T06:07:27Z</time>
      </trkpt>
      <trkpt lat="43.61008050" lon="10.78473320">
        <ele>173.00000</ele>
        <time>2010-01-01T06:07:40Z</time>
      </trkpt>
      <trkpt lat="43.60945130" lon="10.78463670">
        <ele>167.00000</ele>
        <time>2010-01-01T06:08:05Z</time>
      </trkpt>
      <trkpt lat="43.60939690" lon="10.78429340">
        <ele>170.00000</ele>
        <time>2010-01-01T06:08:15Z</time>
      </trkpt>
      <trkpt lat="43.60958330" lon="10.78397150">
        <ele>177.00000</ele>
        <time>2010-01-01T06:08:27Z</time>
      </trkpt>
      <trkpt lat="43.60966880" lon="10.78358530">
        <ele>181.00000</ele>
        <time>2010-01-01T06:08:39Z</time>
      </trkpt>
      <trkpt lat="43.60961050" lon="10.78320980">
        <ele>179.00000</ele>
        <time>2010-01-01T06:08:50Z</time>
      </trkpt>
      <trkpt lat="43.60966880" lon="10.78182570">
        <ele>179.00000</ele>
        <time>2010-01-01T06:09:30Z</time>
      </trkpt>
      <trkpt lat="43.61002610" lon="10.78043100">
        <ele>183.00000</ele>
        <time>2010-01-01T06:10:13Z</time>
      </trkpt>
      <trkpt lat="43.60979310" lon="10.77915430">
        <ele>193.00000</ele>
        <time>2010-01-01T06:10:51Z</time>
      </trkpt>
      <trkpt lat="43.60956780" lon="10.77871440">
        <ele>196.00000</ele>
        <time>2010-01-01T06:11:07Z</time>
      </trkpt>
      <trkpt lat="43.60935800" lon="10.77849440">
        <ele>199.00000</ele>
        <time>2010-01-01T06:11:17Z</time>
      </trkpt>
      <trkpt lat="43.60876380" lon="10.77850520">
        <ele>202.00000</ele>
        <time>2010-01-01T06:11:41Z</time>
      </trkpt>
      <trkpt lat="43.60861620" lon="10.77839790">
        <ele>204.00000</ele>
        <time>2010-01-01T06:11:48Z</time>
      </trkpt>
      <trkpt lat="43.60850350" lon="10.77819940">
        <ele>203.00000</ele>
        <time>2010-01-01T06:11:55Z</time>
      </trkpt>
      <trkpt lat="43.60837150" lon="10.77773800">
        <ele>207.00000</ele>
        <time>2010-01-01T06:12:09Z</time>
      </trkpt>
      <trkpt lat="43.60814620" lon="10.77741620">
        <ele>205.00000</ele>
        <time>2010-01-01T06:12:22Z</time>
      </trkpt>
      <trkpt lat="43.60802190" lon="10.77707290">
        <ele>205.00000</ele>
        <time>2010-01-01T06:12:34Z</time>
      </trkpt>
      <trkpt lat="43.60741590" lon="10.77577470">
        <ele>207.00000</ele>
        <time>2010-01-01T06:13:18Z</time>
      </trkpt>
      <trkpt lat="43.60637880" lon="10.77494850">
        <ele>204.00000</ele>
        <time>2010-01-01T06:14:06Z</time>
      </trkpt>
      <trkpt lat="43.60610300" lon="10.77493780">
        <ele>205.00000</ele>
        <time>2010-01-01T06:14:17Z</time>
      </trkpt>
      <trkpt lat="43.60585440" lon="10.77539380">
        <ele>203.00000</ele>
        <time>2010-01-01T06:14:34Z</time>
      </trkpt>
      <trkpt lat="43.60562140" lon="10.77556550">
        <ele>203.00000</ele>
        <time>2010-01-01T06:14:44Z</time>
      </trkpt>
      <trkpt lat="43.60545050" lon="10.77555470">
        <ele>205.00000</ele>
        <time>2010-01-01T06:14:51Z</time>
      </trkpt>
      <trkpt lat="43.60513580" lon="10.77476080">
        <ele>205.00000</ele>
        <time>2010-01-01T06:15:17Z</time>
      </trkpt>
      <trkpt lat="43.60504650" lon="10.77429410">
        <ele>206.00000</ele>
        <time>2010-01-01T06:15:31Z</time>
      </trkpt>
      <trkpt lat="43.60540000" lon="10.77414920">
        <ele>205.00000</ele>
        <time>2010-01-01T06:15:46Z</time>
      </trkpt>
      <trkpt lat="43.60607580" lon="10.77440140">
        <ele>205.00000</ele>
        <time>2010-01-01T06:16:14Z</time>
      </trkpt>
      <trkpt lat="43.60626230" lon="10.77449790">
        <ele>204.00000</ele>
        <time>2010-01-01T06:16:22Z</time>
      </trkpt>
      <trkpt lat="43.60717120" lon="10.77463200">
        <ele>207.00000</ele>
        <time>2010-01-01T06:16:59Z</time>
      </trkpt>
      <trkpt lat="43.60800630" lon="10.77469110">
        <ele>202.00000</ele>
        <time>2010-01-01T06:17:32Z</time>
      </trkpt>
      <trkpt lat="43.60834040" lon="10.77454090">
        <ele>195.00000</ele>
        <time>2010-01-01T06:17:46Z</time>
      </trkpt>
      <trkpt lat="43.60853460" lon="10.77391860">
        <ele>196.00000</ele>
        <time>2010-01-01T06:18:06Z</time>
      </trkpt>
      <trkpt lat="43.60882200" lon="10.77368250">
        <ele>199.00000</ele>
        <time>2010-01-01T06:18:19Z</time>
      </trkpt>
      <trkpt lat="43.60917160" lon="10.77359670">
        <ele>199.00000</ele>
        <time>2010-01-01T06:18:34Z</time>
      </trkpt>
      <trkpt lat="43.61017370" lon="10.77422970">
        <ele>207.00000</ele>
        <time>2010-01-01T06:19:18Z</time>
      </trkpt>
      <trkpt lat="43.61117580" lon="10.77390780">
        <ele>213.00000</ele>
        <time>2010-01-01T06:19:59Z</time>
      </trkpt>
      <trkpt lat="43.61140880" lon="10.77333920">
        <ele>216.00000</ele>
        <time>2010-01-01T06:20:18Z</time>
      </trkpt>
      <trkpt lat="43.61230990" lon="10.77319970">
        <ele>215.00000</ele>
        <time>2010-01-01T06:20:54Z</time>
      </trkpt>
      <trkpt lat="43.61263620" lon="10.77250240">
        <ele>207.00000</ele>
        <time>2010-01-01T06:21:18Z</time>
      </trkpt>
      <trkpt lat="43.61315660" lon="10.77189080">
        <ele>208.00000</ele>
        <time>2010-01-01T06:21:46Z</time>
      </trkpt>
      <trkpt lat="43.61341300" lon="10.77131150">
        <ele>210.00000</ele>
        <time>2010-01-01T06:22:05Z</time>
      </trkpt>
      <trkpt lat="43.61343630" lon="10.77066770">
        <ele>208.00000</ele>
        <time>2010-01-01T06:22:24Z</time>
      </trkpt>
      <trkpt lat="43.61371590" lon="10.76982020">
        <ele>196.00000</ele>
        <time>2010-01-01T06:22:51Z</time>
      </trkpt>
      <trkpt lat="43.61371590" lon="10.76921930">
        <ele>196.00000</ele>
        <time>2010-01-01T06:23:08Z</time>
      </trkpt>
      <trkpt lat="43.61351400" lon="10.76771730">
        <ele>193.00000</ele>
        <time>2010-01-01T06:23:53Z</time>
      </trkpt>
      <trkpt lat="43.61359940" lon="10.76428410">
        <ele>183.00000</ele>
        <time>2010-01-01T06:25:32Z</time>
      </trkpt>
      <trkpt lat="43.61377810" lon="10.76373150">
        <ele>184.00000</ele>
        <time>2010-01-01T06:25:50Z</time>
      </trkpt>
      <trkpt lat="43.61434510" lon="10.76317900">
        <ele>184.00000</ele>
        <time>2010-01-01T06:26:17Z</time>
      </trkpt>
      <trkpt lat="43.61501310" lon="10.76241730">
        <ele>184.00000</ele>
        <time>2010-01-01T06:26:52Z</time>
      </trkpt>
      <trkpt lat="43.61570440" lon="10.76192370">
        <ele>175.00000</ele>
        <time>2010-01-01T06:27:23Z</time>
      </trkpt>
      <trkpt lat="43.61638020" lon="10.76124780">
        <ele>171.00000</ele>
        <time>2010-01-01T06:27:57Z</time>
      </trkpt>
      <trkpt lat="43.61690060" lon="10.76085090">
        <ele>169.00000</ele>
        <time>2010-01-01T06:28:21Z</time>
      </trkpt>
      <trkpt lat="43.61739770" lon="10.76057190">
        <ele>166.00000</ele>
        <time>2010-01-01T06:28:42Z</time>
      </trkpt>
      <trkpt lat="43.61755690" lon="10.76026610">
        <ele>166.00000</ele>
        <time>2010-01-01T06:28:53Z</time>
      </trkpt>
      <trkpt lat="43.61769290" lon="10.75981020">
        <ele>166.00000</ele>
        <time>2010-01-01T06:29:07Z</time>
      </trkpt>
      <trkpt lat="43.61790260" lon="10.75945610">
        <ele>165.00000</ele>
        <time>2010-01-01T06:29:20Z</time>
      </trkpt>
      <trkpt lat="43.61815890" lon="10.75931660">
        <ele>165.00000</ele>
        <time>2010-01-01T06:29:31Z</time>
      </trkpt>
      <trkpt lat="43.61860940" lon="10.75923080">
        <ele>169.00000</ele>
        <time>2010-01-01T06:29:50Z</time>
      </trkpt>
      <trkpt lat="43.61888120" lon="10.75899480">
        <ele>168.00000</ele>
        <time>2010-01-01T06:30:03Z</time>
      </trkpt>
      <trkpt lat="43.61914530" lon="10.75798630">
        <ele>174.00000</ele>
        <time>2010-01-01T06:30:34Z</time>
      </trkpt>
      <trkpt lat="43.61905990" lon="10.75766440">
        <ele>176.00000</ele>
        <time>2010-01-01T06:30:44Z</time>
      </trkpt>
      <trkpt lat="43.61841520" lon="10.75728890">
        <ele>171.00000</ele>
        <time>2010-01-01T06:31:12Z</time>
      </trkpt>
      <trkpt lat="43.61791810" lon="10.75627500">
        <ele>165.00000</ele>
        <time>2010-01-01T06:31:47Z</time>
      </trkpt>
      <trkpt lat="43.61780160" lon="10.75589410">
        <ele>161.00000</ele>
        <time>2010-01-01T06:31:59Z</time>
      </trkpt>
      <trkpt lat="43.61792590" lon="10.75512170">
        <ele>153.00000</ele>
        <time>2010-01-01T06:32:22Z</time>
      </trkpt>
      <trkpt lat="43.61798030" lon="10.75433850">
        <ele>149.00000</ele>
        <time>2010-01-01T06:32:45Z</time>
      </trkpt>
      <trkpt lat="43.61794140" lon="10.75336210">
        <ele>155.00000</ele>
        <time>2010-01-01T06:33:13Z</time>
      </trkpt>
      <trkpt lat="43.61798030" lon="10.75287400">
        <ele>161.00000</ele>
        <time>2010-01-01T06:33:27Z</time>
      </trkpt>
      <trkpt lat="43.61850840" lon="10.75181720">
        <ele>163.00000</ele>
        <time>2010-01-01T06:34:05Z</time>
      </trkpt>
      <trkpt lat="43.61877250" lon="10.75045460">
        <ele>161.00000</ele>
        <time>2010-01-01T06:34:45Z</time>
      </trkpt>
      <trkpt lat="43.61913370" lon="10.74949970">
        <ele>151.00000</ele>
        <time>2010-01-01T06:35:17Z</time>
      </trkpt>
      <trkpt lat="43.61919190" lon="10.74913500">
        <ele>152.00000</ele>
        <time>2010-01-01T06:35:27Z</time>
      </trkpt>
      <trkpt lat="43.61908320" lon="10.74882380">
        <ele>149.00000</ele>
        <time>2010-01-01T06:35:37Z</time>
      </trkpt>
      <trkpt lat="43.61837640" lon="10.74799770">
        <ele>144.00000</ele>
        <time>2010-01-01T06:36:15Z</time>
      </trkpt>
      <trkpt lat="43.61756080" lon="10.74587340">
        <ele>147.00000</ele>
        <time>2010-01-01T06:37:24Z</time>
      </trkpt>
      <trkpt lat="43.61755310" lon="10.74556230">
        <ele>146.00000</ele>
        <time>2010-01-01T06:37:33Z</time>
      </trkpt>
      <trkpt lat="43.61794920" lon="10.74452160">
        <ele>145.00000</ele>
        <time>2010-01-01T06:38:07Z</time>
      </trkpt>
      <trkpt lat="43.61818220" lon="10.74373840">
        <ele>150.00000</ele>
        <time>2010-01-01T06:38:32Z</time>
      </trkpt>
      <trkpt lat="43.61817440" lon="10.74313750">
        <ele>152.00000</ele>
        <time>2010-01-01T06:38:49Z</time>
      </trkpt>
      <trkpt lat="43.61799580" lon="10.74209690">
        <ele>149.00000</ele>
        <time>2010-01-01T06:39:20Z</time>
      </trkpt>
      <trkpt lat="43.61728120" lon="10.74017640">
        <ele>143.00000</ele>
        <time>2010-01-01T06:40:23Z</time>
      </trkpt>
      <trkpt lat="43.61723460" lon="10.73941460">
        <ele>139.00000</ele>
        <time>2010-01-01T06:40:45Z</time>
      </trkpt>
      <trkpt lat="43.61728120" lon="10.73850270">
        <ele>135.00000</ele>
        <time>2010-01-01T06:41:11Z</time>
      </trkpt>
      <trkpt lat="43.61749090" lon="10.73777310">
        <ele>138.00000</ele>
        <time>2010-01-01T06:41:34Z</time>
      </trkpt>
      <trkpt lat="43.61764630" lon="10.73634620">
        <ele>139.00000</ele>
        <time>2010-01-01T06:42:16Z</time>
      </trkpt>
      <trkpt lat="43.61757640" lon="10.73574540">
        <ele>142.00000</ele>
        <time>2010-01-01T06:42:34Z</time>
      </trkpt>
      <trkpt lat="43.61718800" lon="10.73502650">
        <ele>144.00000</ele>
        <time>2010-01-01T06:43:00Z</time>
      </trkpt>
      <trkpt lat="43.61736660" lon="10.73321340">
        <ele>149.00000</ele>
        <time>2010-01-01T06:43:53Z</time>
      </trkpt>
      <trkpt lat="43.61801910" lon="10.73174350">
        <ele>147.00000</ele>
        <time>2010-01-01T06:44:43Z</time>
      </trkpt>
      <trkpt lat="43.61813560" lon="10.73108910">
        <ele>149.00000</ele>
        <time>2010-01-01T06:45:02Z</time>
      </trkpt>
      <trkpt lat="43.61840750" lon="10.73042390">
        <ele>157.00000</ele>
        <time>2010-01-01T06:45:24Z</time>
      </trkpt>
      <trkpt lat="43.61838410" lon="10.72993040">
        <ele>161.00000</ele>
        <time>2010-01-01T06:45:39Z</time>
      </trkpt>
      <trkpt lat="43.61805020" lon="10.72940460">
        <ele>157.00000</ele>
        <time>2010-01-01T06:45:59Z</time>
      </trkpt>
      <trkpt lat="43.61760740" lon="10.72843900">
        <ele>152.00000</ele>
        <time>2010-01-01T06:46:32Z</time>
      </trkpt>
      <trkpt lat="43.61742100" lon="10.72774170">
        <ele>154.00000</ele>
        <time>2010-01-01T06:46:54Z</time>
      </trkpt>
      <trkpt lat="43.61740550" lon="10.72716230">
        <ele>149.00000</ele>
        <time>2010-01-01T06:47:10Z</time>
      </trkpt>
      <trkpt lat="43.61761520" lon="10.72595000">
        <ele>151.00000</ele>
        <time>2010-01-01T06:47:47Z</time>
      </trkpt>
      <trkpt lat="43.61755310" lon="10.72531700">
        <ele>148.00000</ele>
        <time>2010-01-01T06:48:05Z</time>
      </trkpt>
      <trkpt lat="43.61766180" lon="10.72446940">
        <ele>154.00000</ele>
        <time>2010-01-01T06:48:30Z</time>
      </trkpt>
      <trkpt lat="43.61799580" lon="10.72384710">
        <ele>166.00000</ele>
        <time>2010-01-01T06:48:52Z</time>
      </trkpt>
      <trkpt lat="43.61869480" lon="10.72345010">
        <ele>163.00000</ele>
        <time>2010-01-01T06:49:23Z</time>
      </trkpt>
      <trkpt lat="43.61890450" lon="10.72328920">
        <ele>161.00000</ele>
        <time>2010-01-01T06:49:32Z</time>
      </trkpt>
      <trkpt lat="43.61894340" lon="10.72286000">
        <ele>162.00000</ele>
        <time>2010-01-01T06:49:45Z</time>
      </trkpt>
      <trkpt lat="43.61872590" lon="10.72217340">
        <ele>165.00000</ele>
        <time>2010-01-01T06:50:07Z</time>
      </trkpt>
      <trkpt lat="43.61857830" lon="10.72154040">
        <ele>162.00000</ele>
        <time>2010-01-01T06:50:26Z</time>
      </trkpt>
      <trkpt lat="43.61864820" lon="10.72107910">
        <ele>158.00000</ele>
        <time>2010-01-01T06:50:39Z</time>
      </trkpt>
      <trkpt lat="43.61881130" lon="10.72078940">
        <ele>155.00000</ele>
        <time>2010-01-01T06:50:50Z</time>
      </trkpt>
      <trkpt lat="43.61886570" lon="10.72003840">
        <ele>152.00000</ele>
        <time>2010-01-01T06:51:12Z</time>
      </trkpt>
      <trkpt lat="43.61896670" lon="10.71943750">
        <ele>150.00000</ele>
        <time>2010-01-01T06:51:30Z</time>
      </trkpt>
      <trkpt lat="43.61944050" lon="10.71827880">
        <ele>152.00000</ele>
        <time>2010-01-01T06:52:08Z</time>
      </trkpt>
      <trkpt lat="43.61967350" lon="10.71805350">
        <ele>155.00000</ele>
        <time>2010-01-01T06:52:20Z</time>
      </trkpt>
      <trkpt lat="43.62010070" lon="10.71774240">
        <ele>151.00000</ele>
        <time>2010-01-01T06:52:39Z</time>
      </trkpt>
      <trkpt lat="43.62041130" lon="10.71765660">
        <ele>152.00000</ele>
        <time>2010-01-01T06:52:52Z</time>
      </trkpt>
      <trkpt lat="43.62128900" lon="10.71767800">
        <ele>158.00000</ele>
        <time>2010-01-01T06:53:27Z</time>
      </trkpt>
      <trkpt lat="43.62325400" lon="10.71692700">
        <ele>155.00000</ele>
        <time>2010-01-01T06:54:49Z</time>
      </trkpt>
      <trkpt lat="43.62412380" lon="10.71718450">
        <ele>152.00000</ele>
        <time>2010-01-01T06:55:24Z</time>
      </trkpt>
      <trkpt lat="43.62467520" lon="10.71696990">
        <ele>150.00000</ele>
        <time>2010-01-01T06:55:47Z</time>
      </trkpt>
      <trkpt lat="43.62522660" lon="10.71664810">
        <ele>144.00000</ele>
        <time>2010-01-01T06:56:11Z</time>
      </trkpt>
      <trkpt lat="43.62663230" lon="10.71525330">
        <ele>143.00000</ele>
        <time>2010-01-01T06:57:20Z</time>
      </trkpt>
      <trkpt lat="43.62745550" lon="10.71389070">
        <ele>142.00000</ele>
        <time>2010-01-01T06:58:12Z</time>
      </trkpt>
      <trkpt lat="43.62823990" lon="10.71338650">
        <ele>149.00000</ele>
        <time>2010-01-01T06:58:46Z</time>
      </trkpt>
      <trkpt lat="43.62872130" lon="10.71320410">
        <ele>147.00000</ele>
        <time>2010-01-01T06:59:06Z</time>
      </trkpt>
      <trkpt lat="43.63035990" lon="10.71346160">
        <ele>134.00000</ele>
        <time>2010-01-01T07:00:12Z</time>
      </trkpt>
      <trkpt lat="43.63191300" lon="10.71251740">
        <ele>123.00000</ele>
        <time>2010-01-01T07:01:20Z</time>
      </trkpt>
      <trkpt lat="43.63338840" lon="10.71084380">
        <ele>106.00000</ele>
        <time>2010-01-01T07:02:37Z</time>
      </trkpt>
      <trkpt lat="43.63379220" lon="10.71070430">
        <ele>107.00000</ele>
        <time>2010-01-01T07:02:53Z</time>
      </trkpt>
      <trkpt lat="43.63419600" lon="10.71072570">
        <ele>106.00000</ele>
        <time>2010-01-01T07:03:10Z</time>
      </trkpt>
      <trkpt lat="43.63452210" lon="10.71058630">
        <ele>105.00000</ele>
        <time>2010-01-01T07:03:23Z</time>
      </trkpt>
      <trkpt lat="43.63487150" lon="10.71009270">
        <ele>106.00000</ele>
        <time>2010-01-01T07:03:43Z</time>
      </trkpt>
      <trkpt lat="43.63504240" lon="10.70958850">
        <ele>108.00000</ele>
        <time>2010-01-01T07:03:59Z</time>
      </trkpt>
      <trkpt lat="43.63511230" lon="10.70862290">
        <ele>107.00000</ele>
        <time>2010-01-01T07:04:28Z</time>
      </trkpt>
      <trkpt lat="43.63549270" lon="10.70804350">
        <ele>109.00000</ele>
        <time>2010-01-01T07:04:50Z</time>
      </trkpt>
      <trkpt lat="43.63536850" lon="10.70713160">
        <ele>106.00000</ele>
        <time>2010-01-01T07:05:17Z</time>
      </trkpt>
      <trkpt lat="43.63547720" lon="10.70632690">
        <ele>111.00000</ele>
        <time>2010-01-01T07:05:41Z</time>
      </trkpt>
      <trkpt lat="43.63536070" lon="10.70572610">
        <ele>105.00000</ele>
        <time>2010-01-01T07:05:59Z</time>
      </trkpt>
      <trkpt lat="43.63541510" lon="10.70529690">
        <ele>99.000000</ele>
        <time>2010-01-01T07:06:11Z</time>
      </trkpt>
      <trkpt lat="43.63557820" lon="10.70490000">
        <ele>96.000000</ele>
        <time>2010-01-01T07:06:25Z</time>
      </trkpt>
      <trkpt lat="43.63654100" lon="10.70335500">
        <ele>96.000000</ele>
        <time>2010-01-01T07:07:24Z</time>
      </trkpt>
      <trkpt lat="43.63700690" lon="10.70245380">
        <ele>93.000000</ele>
        <time>2010-01-01T07:07:56Z</time>
      </trkpt>
      <trkpt lat="43.63770570" lon="10.70148820">
        <ele>92.000000</ele>
        <time>2010-01-01T07:08:35Z</time>
      </trkpt>
      <trkpt lat="43.63814050" lon="10.70130580">
        <ele>97.000000</ele>
        <time>2010-01-01T07:08:54Z</time>
      </trkpt>
      <trkpt lat="43.63855200" lon="10.70056550">
        <ele>102.00000</ele>
        <time>2010-01-01T07:09:21Z</time>
      </trkpt>
      <trkpt lat="43.63895580" lon="10.70042610">
        <ele>106.00000</ele>
        <time>2010-01-01T07:09:37Z</time>
      </trkpt>
      <trkpt lat="43.63930520" lon="10.70039390">
        <ele>102.00000</ele>
        <time>2010-01-01T07:09:51Z</time>
      </trkpt>
      <trkpt lat="43.63965460" lon="10.69996470">
        <ele>104.00000</ele>
        <time>2010-01-01T07:10:10Z</time>
      </trkpt>
      <trkpt lat="43.63987980" lon="10.69953560">
        <ele>106.00000</ele>
        <time>2010-01-01T07:10:25Z</time>
      </trkpt>
      <trkpt lat="43.64042330" lon="10.69931030">
        <ele>95.000000</ele>
        <time>2010-01-01T07:10:48Z</time>
      </trkpt>
      <trkpt lat="43.64103660" lon="10.69844120">
        <ele>87.000000</ele>
        <time>2010-01-01T07:11:23Z</time>
      </trkpt>
      <trkpt lat="43.64126960" lon="10.69831250">
        <ele>83.000000</ele>
        <time>2010-01-01T07:11:33Z</time>
      </trkpt>
      <trkpt lat="43.64227890" lon="10.69841980">
        <ele>70.000000</ele>
        <time>2010-01-01T07:12:14Z</time>
      </trkpt>
      <trkpt lat="43.64277190" lon="10.69855920">
        <ele>75.000000</ele>
        <time>2010-01-01T07:12:34Z</time>
      </trkpt>
      <trkpt lat="43.64392490" lon="10.69904200">
        <ele>78.000000</ele>
        <time>2010-01-01T07:13:22Z</time>
      </trkpt>
      <trkpt lat="43.64440620" lon="10.69899910">
        <ele>78.000000</ele>
        <time>2010-01-01T07:13:41Z</time>
      </trkpt>
      <trkpt lat="43.64460810" lon="10.69884350">
        <ele>78.000000</ele>
        <time>2010-01-01T07:13:51Z</time>
      </trkpt>
      <trkpt lat="43.64483320" lon="10.69831250">
        <ele>77.000000</ele>
        <time>2010-01-01T07:14:09Z</time>
      </trkpt>
      <trkpt lat="43.64564840" lon="10.69746490">
        <ele>77.000000</ele>
        <time>2010-01-01T07:14:49Z</time>
      </trkpt>
      <trkpt lat="43.64598230" lon="10.69698210">
        <ele>69.000000</ele>
        <time>2010-01-01T07:15:09Z</time>
      </trkpt>
      <trkpt lat="43.64646360" lon="10.69610230">
        <ele>65.000000</ele>
        <time>2010-01-01T07:15:41Z</time>
      </trkpt>
      <trkpt lat="43.64726320" lon="10.69516890">
        <ele>62.000000</ele>
        <time>2010-01-01T07:16:23Z</time>
      </trkpt>
      <trkpt lat="43.64778340" lon="10.69420330">
        <ele>58.000000</ele>
        <time>2010-01-01T07:16:57Z</time>
      </trkpt>
      <trkpt lat="43.64897890" lon="10.69148890">
        <ele>52.000000</ele>
        <time>2010-01-01T07:18:29Z</time>
      </trkpt>
      <trkpt lat="43.64929720" lon="10.69051260">
        <ele>51.000000</ele>
        <time>2010-01-01T07:19:01Z</time>
      </trkpt>
      <trkpt lat="43.64964660" lon="10.68982600">
        <ele>53.000000</ele>
        <time>2010-01-01T07:19:25Z</time>
      </trkpt>
      <trkpt lat="43.65078000" lon="10.68803420">
        <ele>53.000000</ele>
        <time>2010-01-01T07:20:34Z</time>
      </trkpt>
      <trkpt lat="43.65114480" lon="10.68699350">
        <ele>47.000000</ele>
        <time>2010-01-01T07:21:07Z</time>
      </trkpt>
      <trkpt lat="43.65185900" lon="10.68575970">
        <ele>49.000000</ele>
        <time>2010-01-01T07:21:53Z</time>
      </trkpt>
      <trkpt lat="43.65218500" lon="10.68540570">
        <ele>51.000000</ele>
        <time>2010-01-01T07:22:10Z</time>
      </trkpt>
      <trkpt lat="43.65178910" lon="10.68478340">
        <ele>47.000000</ele>
        <time>2010-01-01T07:22:34Z</time>
      </trkpt>
      <trkpt lat="43.65132720" lon="10.68448840">
        <ele>46.000000</ele>
        <time>2010-01-01T07:22:54Z</time>
      </trkpt>
      <trkpt lat="43.65065960" lon="10.68364620">
        <ele>34.000000</ele>
        <time>2010-01-01T07:23:30Z</time>
      </trkpt>
      <trkpt lat="43.65060920" lon="10.68294880">
        <ele>29.000000</ele>
        <time>2010-01-01T07:23:50Z</time>
      </trkpt>
      <trkpt lat="43.65032970" lon="10.68253040">
        <ele>25.000000</ele>
        <time>2010-01-01T07:24:07Z</time>
      </trkpt>
      <trkpt lat="43.65068680" lon="10.68216560">
        <ele>23.000000</ele>
        <time>2010-01-01T07:24:25Z</time>
      </trkpt>
      <trkpt lat="43.65119140" lon="10.68154330">
        <ele>21.000000</ele>
        <time>2010-01-01T07:24:52Z</time>
      </trkpt>
      <trkpt lat="43.65167660" lon="10.68115710">
        <ele>21.000000</ele>
        <time>2010-01-01T07:25:14Z</time>
      </trkpt>
      <trkpt lat="43.65266240" lon="10.67924200">
        <ele>20.000000</ele>
        <time>2010-01-01T07:26:22Z</time>
      </trkpt>
      <trkpt lat="43.65390830" lon="10.67883960">
        <ele>22.000000</ele>
        <time>2010-01-01T07:27:14Z</time>
      </trkpt>
      <trkpt lat="43.65417230" lon="10.67865190">
        <ele>23.000000</ele>
        <time>2010-01-01T07:27:25Z</time>
      </trkpt>
      <trkpt lat="43.65438570" lon="10.67829780">
        <ele>23.000000</ele>
        <time>2010-01-01T07:27:39Z</time>
      </trkpt>
      <trkpt lat="43.65446720" lon="10.67794380">
        <ele>22.000000</ele>
        <time>2010-01-01T07:27:49Z</time>
      </trkpt>
      <trkpt lat="43.65439740" lon="10.67670460">
        <ele>20.000000</ele>
        <time>2010-01-01T07:28:25Z</time>
      </trkpt>
      <trkpt lat="43.65452930" lon="10.67551370">
        <ele>22.000000</ele>
        <time>2010-01-01T07:29:00Z</time>
      </trkpt>
      <trkpt lat="43.65447500" lon="10.67490220">
        <ele>21.000000</ele>
        <time>2010-01-01T07:29:18Z</time>
      </trkpt>
      <trkpt lat="43.65497180" lon="10.67287440">
        <ele>18.000000</ele>
        <time>2010-01-01T07:30:20Z</time>
      </trkpt>
      <trkpt lat="43.65575190" lon="10.66858820">
        <ele>17.000000</ele>
        <time>2010-01-01T07:32:28Z</time>
      </trkpt>
      <trkpt lat="43.65580240" lon="10.66784260">
        <ele>18.000000</ele>
        <time>2010-01-01T07:32:50Z</time>
      </trkpt>
      <trkpt lat="43.65577130" lon="10.66728470">
        <ele>17.000000</ele>
        <time>2010-01-01T07:33:06Z</time>
      </trkpt>
      <trkpt lat="43.65551520" lon="10.66588990">
        <ele>14.000000</ele>
        <time>2010-01-01T07:33:48Z</time>
      </trkpt>
      <trkpt lat="43.65549960" lon="10.66526230">
        <ele>15.000000</ele>
        <time>2010-01-01T07:34:06Z</time>
      </trkpt>
      <trkpt lat="43.65622150" lon="10.66307900">
        <ele>16.000000</ele>
        <time>2010-01-01T07:35:16Z</time>
      </trkpt>
      <trkpt lat="43.65682310" lon="10.66058990">
        <ele>16.000000</ele>
        <time>2010-01-01T07:36:32Z</time>
      </trkpt>
      <trkpt lat="43.65761870" lon="10.65704940">
        <ele>14.000000</ele>
        <time>2010-01-01T07:38:19Z</time>
      </trkpt>
      <trkpt lat="43.65795250" lon="10.65680260">
        <ele>14.000000</ele>
        <time>2010-01-01T07:38:34Z</time>
      </trkpt>
      <trkpt lat="43.65836390" lon="10.65670600">
        <ele>15.000000</ele>
        <time>2010-01-01T07:38:51Z</time>
      </trkpt>
      <trkpt lat="43.65865500" lon="10.65534880">
        <ele>16.000000</ele>
        <time>2010-01-01T07:39:32Z</time>
      </trkpt>
      <trkpt lat="43.65888390" lon="10.65376630">
        <ele>15.000000</ele>
        <time>2010-01-01T07:40:18Z</time>
      </trkpt>
      <trkpt lat="43.65912460" lon="10.65281150">
        <ele>15.000000</ele>
        <time>2010-01-01T07:40:48Z</time>
      </trkpt>
      <trkpt lat="43.66011030" lon="10.65125580">
        <ele>15.000000</ele>
        <time>2010-01-01T07:41:48Z</time>
      </trkpt>
      <trkpt lat="43.66034320" lon="10.65079450">
        <ele>15.000000</ele>
        <time>2010-01-01T07:42:04Z</time>
      </trkpt>
      <trkpt lat="43.66065360" lon="10.64983960">
        <ele>15.000000</ele>
        <time>2010-01-01T07:42:34Z</time>
      </trkpt>
      <trkpt lat="43.66080110" lon="10.64921200">
        <ele>16.000000</ele>
        <time>2010-01-01T07:42:53Z</time>
      </trkpt>
      <trkpt lat="43.66103010" lon="10.64856290">
        <ele>15.000000</ele>
        <time>2010-01-01T07:43:14Z</time>
      </trkpt>
      <trkpt lat="43.66186440" lon="10.64687310">
        <ele>16.000000</ele>
        <time>2010-01-01T07:44:14Z</time>
      </trkpt>
      <trkpt lat="43.66221370" lon="10.64569290">
        <ele>17.000000</ele>
        <time>2010-01-01T07:44:50Z</time>
      </trkpt>
      <trkpt lat="43.66220590" lon="10.64451810">
        <ele>17.000000</ele>
        <time>2010-01-01T07:45:24Z</time>
      </trkpt>
      <trkpt lat="43.66215940" lon="10.64164280">
        <ele>17.000000</ele>
        <time>2010-01-01T07:46:48Z</time>
      </trkpt>
      <trkpt lat="43.66375050" lon="10.64181440">
        <ele>18.000000</ele>
        <time>2010-01-01T07:47:52Z</time>
      </trkpt>
      <trkpt lat="43.66372720" lon="10.63914290">
        <ele>20.000000</ele>
        <time>2010-01-01T07:49:09Z</time>
      </trkpt>
      <trkpt lat="43.66337020" lon="10.63910000">
        <ele>19.000000</ele>
        <time>2010-01-01T07:49:23Z</time>
      </trkpt>
      <trkpt lat="43.66325370" lon="10.63891760">
        <ele>18.000000</ele>
        <time>2010-01-01T07:49:30Z</time>
      </trkpt>
      <trkpt lat="43.66252800" lon="10.63887470">
        <ele>18.000000</ele>
        <time>2010-01-01T07:49:59Z</time>
      </trkpt>
      <trkpt lat="43.66253190" lon="10.63832750">
        <ele>16.000000</ele>
        <time>2010-01-01T07:50:15Z</time>
      </trkpt>
      <trkpt lat="43.66244650" lon="10.63742100">
        <ele>19.000000</ele>
        <time>2010-01-01T07:50:42Z</time>
      </trkpt>
      <trkpt lat="43.66249310" lon="10.63669140">
        <ele>16.000000</ele>
        <time>2010-01-01T07:51:03Z</time>
      </trkpt>
      <trkpt lat="43.66265220" lon="10.63308650">
        <ele>18.000000</ele>
        <time>2010-01-01T07:52:48Z</time>
      </trkpt>
      <trkpt lat="43.66274540" lon="10.62966400">
        <ele>17.000000</ele>
        <time>2010-01-01T07:54:27Z</time>
      </trkpt>
      <trkpt lat="43.66286180" lon="10.62906860">
        <ele>17.000000</ele>
        <time>2010-01-01T07:54:45Z</time>
      </trkpt>
      <trkpt lat="43.66451880" lon="10.62935820">
        <ele>17.000000</ele>
        <time>2010-01-01T07:55:52Z</time>
      </trkpt>
      <trkpt lat="43.66500000" lon="10.62566750">
        <ele>15.000000</ele>
        <time>2010-01-01T07:57:40Z</time>
      </trkpt>
      <trkpt lat="43.66510090" lon="10.62517400">
        <ele>17.000000</ele>
        <time>2010-01-01T07:57:55Z</time>
      </trkpt>
      <trkpt lat="43.66523670" lon="10.62512040">
        <ele>17.000000</ele>
        <time>2010-01-01T07:58:01Z</time>
      </trkpt>
      <trkpt lat="43.66523280" lon="10.62488970">
        <ele>17.000000</ele>
        <time>2010-01-01T07:58:07Z</time>
      </trkpt>
      <trkpt lat="43.66520570" lon="10.62453030">
        <ele>16.000000</ele>
        <time>2010-01-01T07:58:18Z</time>
      </trkpt>
      <trkpt lat="43.66521340" lon="10.62389190">
        <ele>17.000000</ele>
        <time>2010-01-01T07:58:36Z</time>
      </trkpt>
      <trkpt lat="43.66586540" lon="10.61900490">
        <ele>14.000000</ele>
        <time>2010-01-01T08:01:00Z</time>
      </trkpt>
      <trkpt lat="43.66597790" lon="10.61805540">
        <ele>12.000000</ele>
        <time>2010-01-01T08:01:28Z</time>
      </trkpt>
      <trkpt lat="43.66652120" lon="10.61371560">
        <ele>12.000000</ele>
        <time>2010-01-01T08:03:36Z</time>
      </trkpt>
      <trkpt lat="43.67246570" lon="10.61538930">
        <ele>13.000000</ele>
        <time>2010-01-01T08:07:38Z</time>
      </trkpt>
      <trkpt lat="43.67897620" lon="10.61517470">
        <ele>16.000000</ele>
        <time>2010-01-01T08:11:59Z</time>
      </trkpt>
      <trkpt lat="43.67973660" lon="10.61439150">
        <ele>15.000000</ele>
        <time>2010-01-01T08:12:37Z</time>
      </trkpt>
      <trkpt lat="43.68028750" lon="10.61431640">
        <ele>16.000000</ele>
        <time>2010-01-01T08:12:59Z</time>
      </trkpt>
      <trkpt lat="43.68072970" lon="10.61457390">
        <ele>16.000000</ele>
        <time>2010-01-01T08:13:18Z</time>
      </trkpt>
      <trkpt lat="43.68221170" lon="10.61697720">
        <ele>17.000000</ele>
        <time>2010-01-01T08:14:50Z</time>
      </trkpt>
      <trkpt lat="43.68261520" lon="10.61726680">
        <ele>17.000000</ele>
        <time>2010-01-01T08:15:08Z</time>
      </trkpt>
      <trkpt lat="43.68313500" lon="10.61725610">
        <ele>17.000000</ele>
        <time>2010-01-01T08:15:29Z</time>
      </trkpt>
      <trkpt lat="43.68312730" lon="10.61586140">
        <ele>18.000000</ele>
        <time>2010-01-01T08:16:09Z</time>
      </trkpt>
      <trkpt lat="43.68320480" lon="10.61560390">
        <ele>18.000000</ele>
        <time>2010-01-01T08:16:17Z</time>
      </trkpt>
      <trkpt lat="43.68331730" lon="10.61549120">
        <ele>19.000000</ele>
        <time>2010-01-01T08:16:23Z</time>
      </trkpt>
      <trkpt lat="43.68342600" lon="10.61550190">
        <ele>18.000000</ele>
        <time>2010-01-01T08:16:27Z</time>
      </trkpt>
      <trkpt lat="43.68419800" lon="10.61664460">
        <ele>15.000000</ele>
        <time>2010-01-01T08:17:12Z</time>
      </trkpt>
      <trkpt lat="43.68452770" lon="10.61753510">
        <ele>16.000000</ele>
        <time>2010-01-01T08:17:41Z</time>
      </trkpt>
      <trkpt lat="43.68546260" lon="10.61929460">
        <ele>14.000000</ele>
        <time>2010-01-01T08:18:45Z</time>
      </trkpt>
      <trkpt lat="43.68607550" lon="10.61757800">
        <ele>11.000000</ele>
        <time>2010-01-01T08:19:40Z</time>
      </trkpt>
      <trkpt lat="43.68636260" lon="10.61662310">
        <ele>13.000000</ele>
        <time>2010-01-01T08:20:10Z</time>
      </trkpt>
      <trkpt lat="43.68664190" lon="10.61533570">
        <ele>13.000000</ele>
        <time>2010-01-01T08:20:49Z</time>
      </trkpt>
      <trkpt lat="43.68676600" lon="10.61373710">
        <ele>10.000000</ele>
        <time>2010-01-01T08:21:35Z</time>
      </trkpt>
      <trkpt lat="43.68673500" lon="10.61236380">
        <ele>11.000000</ele>
        <time>2010-01-01T08:22:15Z</time>
      </trkpt>
      <trkpt lat="43.68511350" lon="10.60142040">
        <ele>15.000000</ele>
        <time>2010-01-01T08:27:39Z</time>
      </trkpt>
      <trkpt lat="43.68509410" lon="10.60013290">
        <ele>15.000000</ele>
        <time>2010-01-01T08:28:16Z</time>
      </trkpt>
      <trkpt lat="43.68545480" lon="10.59689280">
        <ele>15.000000</ele>
        <time>2010-01-01T08:29:51Z</time>
      </trkpt>
      <trkpt lat="43.68562170" lon="10.59584140">
        <ele>16.000000</ele>
        <time>2010-01-01T08:30:22Z</time>
      </trkpt>
      <trkpt lat="43.68704140" lon="10.59146940">
        <ele>12.000000</ele>
        <time>2010-01-01T08:32:41Z</time>
      </trkpt>
      <trkpt lat="43.68734010" lon="10.59039110">
        <ele>14.000000</ele>
        <time>2010-01-01T08:33:14Z</time>
      </trkpt>
      <trkpt lat="43.68753020" lon="10.58922700">
        <ele>14.000000</ele>
        <time>2010-01-01T08:33:49Z</time>
      </trkpt>
      <trkpt lat="43.68787160" lon="10.58598690">
        <ele>14.000000</ele>
        <time>2010-01-01T08:35:23Z</time>
      </trkpt>
      <trkpt lat="43.68789000" lon="10.58449000">
        <ele>13.000000</ele>
        <time>2010-01-01T08:36:07Z</time>
      </trkpt>
      <trkpt lat="43.68803840" lon="10.58375000">
        <ele>15.000000</ele>
        <time>2010-01-01T08:36:29Z</time>
      </trkpt>
      <trkpt lat="43.68833000" lon="10.58189000">
        <ele>18.000000</ele>
        <time>2010-01-01T08:37:24Z</time>
      </trkpt>
      <trkpt lat="43.68830000" lon="10.58141000">
        <ele>18.000000</ele>
        <time>2010-01-01T08:37:38Z</time>
      </trkpt>
      <trkpt lat="43.68822000" lon="10.58113000">
        <ele>18.000000</ele>
        <time>2010-01-01T08:37:47Z</time>
      </trkpt>
      <trkpt lat="43.68723540" lon="10.57968910">
        <ele>17.000000</ele>
        <time>2010-01-01T08:38:44Z</time>
      </trkpt>
      <trkpt lat="43.68668000" lon="10.57921000">
        <ele>14.000000</ele>
        <time>2010-01-01T08:39:10Z</time>
      </trkpt>
      <trkpt lat="43.68570700" lon="10.57824610">
        <ele>15.000000</ele>
        <time>2010-01-01T08:39:58Z</time>
      </trkpt>
      <trkpt lat="43.68414000" lon="10.57692000">
        <ele>16.000000</ele>
        <time>2010-01-01T08:41:12Z</time>
      </trkpt>
      <trkpt lat="43.68368000" lon="10.57643000">
        <ele>17.000000</ele>
        <time>2010-01-01T08:41:35Z</time>
      </trkpt>
      <trkpt lat="43.68353000" lon="10.57624000">
        <ele>17.000000</ele>
        <time>2010-01-01T08:41:43Z</time>
      </trkpt>
      <trkpt lat="43.68186000" lon="10.57291000">
        <ele>12.000000</ele>
        <time>2010-01-01T08:43:40Z</time>
      </trkpt>
      <trkpt lat="43.68101680" lon="10.57122940">
        <ele>14.000000</ele>
        <time>2010-01-01T08:44:40Z</time>
      </trkpt>
      <trkpt lat="43.68092000" lon="10.57090000">
        <ele>14.000000</ele>
        <time>2010-01-01T08:44:50Z</time>
      </trkpt>
      <trkpt lat="43.68078000" lon="10.57019000">
        <ele>15.000000</ele>
        <time>2010-01-01T08:45:11Z</time>
      </trkpt>
      <trkpt lat="43.68055000" lon="10.56824000">
        <ele>11.000000</ele>
        <time>2010-01-01T08:46:08Z</time>
      </trkpt>
      <trkpt lat="43.68055000" lon="10.56823000">
        <ele>11.000000</ele>
        <time>2010-01-01T08:46:09Z</time>
      </trkpt>
      <trkpt lat="43.68041000" lon="10.56685000">
        <ele>14.000000</ele>
        <time>2010-01-01T08:46:49Z</time>
      </trkpt>
      <trkpt lat="43.68050000" lon="10.56590000">
        <ele>13.000000</ele>
        <time>2010-01-01T08:47:17Z</time>
      </trkpt>
      <trkpt lat="43.68059000" lon="10.56552000">
        <ele>13.000000</ele>
        <time>2010-01-01T08:47:28Z</time>
      </trkpt>
      <trkpt lat="43.68079000" lon="10.56495000">
        <ele>15.000000</ele>
        <time>2010-01-01T08:47:47Z</time>
      </trkpt>
      <trkpt lat="43.68163000" lon="10.56304000">
        <ele>13.000000</ele>
        <time>2010-01-01T08:48:51Z</time>
      </trkpt>
      <trkpt lat="43.68298000" lon="10.56089000">
        <ele>14.000000</ele>
        <time>2010-01-01T08:50:14Z</time>
      </trkpt>
      <trkpt lat="43.68311000" lon="10.56062000">
        <ele>15.000000</ele>
        <time>2010-01-01T08:50:23Z</time>
      </trkpt>
      <trkpt lat="43.68388000" lon="10.55867000">
        <ele>13.000000</ele>
        <time>2010-01-01T08:51:28Z</time>
      </trkpt>
      <trkpt lat="43.68408000" lon="10.55807000">
        <ele>14.000000</ele>
        <time>2010-01-01T08:51:47Z</time>
      </trkpt>
      <trkpt lat="43.68425000" lon="10.55743000">
        <ele>14.000000</ele>
        <time>2010-01-01T08:52:06Z</time>
      </trkpt>
      <trkpt lat="43.68438000" lon="10.55672000">
        <ele>17.000000</ele>
        <time>2010-01-01T08:52:28Z</time>
      </trkpt>
      <trkpt lat="43.68467000" lon="10.55382000">
        <ele>15.000000</ele>
        <time>2010-01-01T08:53:52Z</time>
      </trkpt>
      <trkpt lat="43.68451000" lon="10.55301000">
        <ele>13.000000</ele>
        <time>2010-01-01T08:54:17Z</time>
      </trkpt>
      <trkpt lat="43.68445000" lon="10.55254000">
        <ele>14.000000</ele>
        <time>2010-01-01T08:54:31Z</time>
      </trkpt>
      <trkpt lat="43.68450000" lon="10.55110000">
        <ele>11.000000</ele>
        <time>2010-01-01T08:55:12Z</time>
      </trkpt>
      <trkpt lat="43.68459000" lon="10.55045000">
        <ele>12.000000</ele>
        <time>2010-01-01T08:55:31Z</time>
      </trkpt>
      <trkpt lat="43.68560000" lon="10.54622000">
        <ele>14.000000</ele>
        <time>2010-01-01T08:57:40Z</time>
      </trkpt>
      <trkpt lat="43.68703000" lon="10.54311000">
        <ele>14.000000</ele>
        <time>2010-01-01T08:59:27Z</time>
      </trkpt>
      <trkpt lat="43.68722000" lon="10.54254000">
        <ele>15.000000</ele>
        <time>2010-01-01T08:59:45Z</time>
      </trkpt>
      <trkpt lat="43.68754000" lon="10.54124000">
        <ele>11.000000</ele>
        <time>2010-01-01T09:00:25Z</time>
      </trkpt>
      <trkpt lat="43.68876000" lon="10.53605000">
        <ele>10.000000</ele>
        <time>2010-01-01T09:03:03Z</time>
      </trkpt>
      <trkpt lat="43.69047000" lon="10.52834000">
        <ele>18.000000</ele>
        <time>2010-01-01T09:06:56Z</time>
      </trkpt>
      <trkpt lat="43.69104000" lon="10.52701000">
        <ele>15.000000</ele>
        <time>2010-01-01T09:07:41Z</time>
      </trkpt>
      <trkpt lat="43.69123000" lon="10.52669000">
        <ele>13.000000</ele>
        <time>2010-01-01T09:07:53Z</time>
      </trkpt>
      <trkpt lat="43.69190000" lon="10.52581000">
        <ele>17.000000</ele>
        <time>2010-01-01T09:08:30Z</time>
      </trkpt>
      <trkpt lat="43.69205000" lon="10.52553000">
        <ele>20.000000</ele>
        <time>2010-01-01T09:08:40Z</time>
      </trkpt>
      <trkpt lat="43.69271250" lon="10.52348070">
        <ele>17.000000</ele>
        <time>2010-01-01T09:09:45Z</time>
      </trkpt>
      <trkpt lat="43.69357000" lon="10.52118000">
        <ele>14.000000</ele>
        <time>2010-01-01T09:11:00Z</time>
      </trkpt>
      <trkpt lat="43.69531000" lon="10.51956000">
        <ele>12.000000</ele>
        <time>2010-01-01T09:12:24Z</time>
      </trkpt>
      <trkpt lat="43.69576000" lon="10.51920000">
        <ele>15.000000</ele>
        <time>2010-01-01T09:12:45Z</time>
      </trkpt>
      <trkpt lat="43.69640000" lon="10.51894000">
        <ele>15.000000</ele>
        <time>2010-01-01T09:13:12Z</time>
      </trkpt>
      <trkpt lat="43.69680000" lon="10.51871000">
        <ele>17.000000</ele>
        <time>2010-01-01T09:13:29Z</time>
      </trkpt>
      <trkpt lat="43.69764000" lon="10.51790000">
        <ele>14.000000</ele>
        <time>2010-01-01T09:14:10Z</time>
      </trkpt>
      <trkpt lat="43.69786000" lon="10.51771000">
        <ele>14.000000</ele>
        <time>2010-01-01T09:14:20Z</time>
      </trkpt>
      <trkpt lat="43.69822000" lon="10.51749000">
        <ele>14.000000</ele>
        <time>2010-01-01T09:14:36Z</time>
      </trkpt>
      <trkpt lat="43.69856520" lon="10.51718290">
        <ele>16.000000</ele>
        <time>2010-01-01T09:14:52Z</time>
      </trkpt>
      <trkpt lat="43.69934000" lon="10.51618000">
        <ele>14.000000</ele>
        <time>2010-01-01T09:15:35Z</time>
      </trkpt>
      <trkpt lat="43.69959000" lon="10.51579000">
        <ele>13.000000</ele>
        <time>2010-01-01T09:15:50Z</time>
      </trkpt>
      <trkpt lat="43.69982000" lon="10.51554000">
        <ele>13.000000</ele>
        <time>2010-01-01T09:16:02Z</time>
      </trkpt>
      <trkpt lat="43.69994000" lon="10.51547000">
        <ele>14.000000</ele>
        <time>2010-01-01T09:16:07Z</time>
      </trkpt>
      <trkpt lat="43.70001570" lon="10.51525170">
        <ele>12.000000</ele>
        <time>2010-01-01T09:16:14Z</time>
      </trkpt>
      <trkpt lat="43.70023000" lon="10.51487000">
        <ele>11.000000</ele>
        <time>2010-01-01T09:16:28Z</time>
      </trkpt>
      <trkpt lat="43.70043000" lon="10.51468000">
        <ele>8.0000000</ele>
        <time>2010-01-01T09:16:38Z</time>
      </trkpt>
      <trkpt lat="43.70170000" lon="10.51291000">
        <ele>9.0000000</ele>
        <time>2010-01-01T09:17:50Z</time>
      </trkpt>
      <trkpt lat="43.70201000" lon="10.51214000">
        <ele>15.000000</ele>
        <time>2010-01-01T09:18:15Z</time>
      </trkpt>
      <trkpt lat="43.70264000" lon="10.51001000">
        <ele>16.000000</ele>
        <time>2010-01-01T09:19:22Z</time>
      </trkpt>
      <trkpt lat="43.70284000" lon="10.50956000">
        <ele>16.000000</ele>
        <time>2010-01-01T09:19:37Z</time>
      </trkpt>
      <trkpt lat="43.70318000" lon="10.50893000">
        <ele>18.000000</ele>
        <time>2010-01-01T09:20:00Z</time>
      </trkpt>
      <trkpt lat="43.70433000" lon="10.50771000">
        <ele>11.000000</ele>
        <time>2010-01-01T09:20:58Z</time>
      </trkpt>
      <trkpt lat="43.70491000" lon="10.50703000">
        <ele>11.000000</ele>
        <time>2010-01-01T09:21:28Z</time>
      </trkpt>
      <trkpt lat="43.70637000" lon="10.50506000">
        <ele>12.000000</ele>
        <time>2010-01-01T09:22:50Z</time>
      </trkpt>
      <trkpt lat="43.70684000" lon="10.50438000">
        <ele>10.000000</ele>
        <time>2010-01-01T09:23:17Z</time>
      </trkpt>
      <trkpt lat="43.70706000" lon="10.50413000">
        <ele>11.000000</ele>
        <time>2010-01-01T09:23:29Z</time>
      </trkpt>
      <trkpt lat="43.70746000" lon="10.50398000">
        <ele>11.000000</ele>
        <time>2010-01-01T09:23:45Z</time>
      </trkpt>
      <trkpt lat="43.70782000" lon="10.50379000">
        <ele>11.000000</ele>
        <time>2010-01-01T09:24:01Z</time>
      </trkpt>
      <trkpt lat="43.70787000" lon="10.50374000">
        <ele>11.000000</ele>
        <time>2010-01-01T09:24:03Z</time>
      </trkpt>
      <trkpt lat="43.70785000" lon="10.50371000">
        <ele>11.000000</ele>
        <time>2010-01-01T09:24:04Z</time>
      </trkpt>
      <trkpt lat="43.70787000" lon="10.50360000">
        <ele>11.000000</ele>
        <time>2010-01-01T09:24:08Z</time>
      </trkpt>
      <trkpt lat="43.70884000" lon="10.50188000">
        <ele>8.0000000</ele>
        <time>2010-01-01T09:25:11Z</time>
      </trkpt>
      <trkpt lat="43.70918000" lon="10.50138000">
        <ele>4.0000000</ele>
        <time>2010-01-01T09:25:31Z</time>
      </trkpt>
      <trkpt lat="43.70933000" lon="10.50124000">
        <ele>4.0000000</ele>
        <time>2010-01-01T09:25:38Z</time>
      </trkpt>
      <trkpt lat="43.71035000" lon="10.50067000">
        <ele>6.0000000</ele>
        <time>2010-01-01T09:26:22Z</time>
      </trkpt>
      <trkpt lat="43.71060000" lon="10.50047000">
        <ele>7.0000000</ele>
        <time>2010-01-01T09:26:33Z</time>
      </trkpt>
      <trkpt lat="43.71137000" lon="10.49969000">
        <ele>4.0000000</ele>
        <time>2010-01-01T09:27:12Z</time>
      </trkpt>
      <trkpt lat="43.71251000" lon="10.49849000">
        <ele>6.0000000</ele>
        <time>2010-01-01T09:28:09Z</time>
      </trkpt>
      <trkpt lat="43.71270000" lon="10.49824000">
        <ele>6.0000000</ele>
        <time>2010-01-01T09:28:19Z</time>
      </trkpt>
      <trkpt lat="43.71319000" lon="10.49727000">
        <ele>4.0000000</ele>
        <time>2010-01-01T09:28:54Z</time>
      </trkpt>
      <trkpt lat="43.71337000" lon="10.49696000">
        <ele>5.0000000</ele>
        <time>2010-01-01T09:29:05Z</time>
      </trkpt>
      <trkpt lat="43.71354000" lon="10.49678000">
        <ele>6.0000000</ele>
        <time>2010-01-01T09:29:14Z</time>
      </trkpt>
      <trkpt lat="43.71387000" lon="10.49650000">
        <ele>10.000000</ele>
        <time>2010-01-01T09:29:29Z</time>
      </trkpt>
      <trkpt lat="43.71405000" lon="10.49630000">
        <ele>10.000000</ele>
        <time>2010-01-01T09:29:39Z</time>
      </trkpt>
      <trkpt lat="43.71438310" lon="10.49578420">
        <ele>6.0000000</ele>
        <time>2010-01-01T09:29:59Z</time>
      </trkpt>
      <trkpt lat="43.71446000" lon="10.49531000">
        <ele>5.0000000</ele>
        <time>2010-01-01T09:30:13Z</time>
      </trkpt>
      <trkpt lat="43.71451110" lon="10.49511900">
        <ele>5.0000000</ele>
        <time>2010-01-01T09:30:19Z</time>
      </trkpt>
      <trkpt lat="43.71474000" lon="10.49439000">
        <ele>5.0000000</ele>
        <time>2010-01-01T09:30:42Z</time>
      </trkpt>
      <trkpt lat="43.71473000" lon="10.49426000">
        <ele>5.0000000</ele>
        <time>2010-01-01T09:30:45Z</time>
      </trkpt>
      <trkpt lat="43.71465000" lon="10.49396000">
        <ele>6.0000000</ele>
        <time>2010-01-01T09:30:55Z</time>
      </trkpt>
      <trkpt lat="43.71435000" lon="10.49313000">
        <ele>6.0000000</ele>
        <time>2010-01-01T09:31:21Z</time>
      </trkpt>
      <trkpt lat="43.71432000" lon="10.49292000">
        <ele>7.0000000</ele>
        <time>2010-01-01T09:31:28Z</time>
      </trkpt>
      <trkpt lat="43.71432000" lon="10.49238000">
        <ele>7.0000000</ele>
        <time>2010-01-01T09:31:43Z</time>
      </trkpt>
      <trkpt lat="43.71429000" lon="10.49207000">
        <ele>6.0000000</ele>
        <time>2010-01-01T09:31:52Z</time>
      </trkpt>
      <trkpt lat="43.71422800" lon="10.49178770">
        <ele>5.0000000</ele>
        <time>2010-01-01T09:32:01Z</time>
      </trkpt>
      <trkpt lat="43.71415000" lon="10.49156000">
        <ele>6.0000000</ele>
        <time>2010-01-01T09:32:08Z</time>
      </trkpt>
      <trkpt lat="43.71244000" lon="10.48996000">
        <ele>4.0000000</ele>
        <time>2010-01-01T09:33:31Z</time>
      </trkpt>
      <trkpt lat="43.71211000" lon="10.48961000">
        <ele>5.0000000</ele>
        <time>2010-01-01T09:33:47Z</time>
      </trkpt>
      <trkpt lat="43.71181000" lon="10.48921000">
        <ele>5.0000000</ele>
        <time>2010-01-01T09:34:04Z</time>
      </trkpt>
      <trkpt lat="43.71108000" lon="10.48814000">
        <ele>4.0000000</ele>
        <time>2010-01-01T09:34:47Z</time>
      </trkpt>
      <trkpt lat="43.71068000" lon="10.48771000">
        <ele>5.0000000</ele>
        <time>2010-01-01T09:35:07Z</time>
      </trkpt>
      <trkpt lat="43.71006000" lon="10.48721000">
        <ele>6.0000000</ele>
        <time>2010-01-01T09:35:36Z</time>
      </trkpt>
      <trkpt lat="43.71000150" lon="10.48713140">
        <ele>6.0000000</ele>
        <time>2010-01-01T09:35:39Z</time>
      </trkpt>
      <trkpt lat="43.70998000" lon="10.48701000">
        <ele>6.0000000</ele>
        <time>2010-01-01T09:35:43Z</time>
      </trkpt>
      <trkpt lat="43.70998000" lon="10.48673000">
        <ele>5.0000000</ele>
        <time>2010-01-01T09:35:51Z</time>
      </trkpt>
      <trkpt lat="43.70995000" lon="10.48645000">
        <ele>5.0000000</ele>
        <time>2010-01-01T09:35:59Z</time>
      </trkpt>
      <trkpt lat="43.70990000" lon="10.48615000">
        <ele>5.0000000</ele>
        <time>2010-01-01T09:36:08Z</time>
      </trkpt>
      <trkpt lat="43.70981000" lon="10.48515000">
        <ele>5.0000000</ele>
        <time>2010-01-01T09:36:37Z</time>
      </trkpt>
      <trkpt lat="43.70982000" lon="10.48418000">
        <ele>6.0000000</ele>
        <time>2010-01-01T09:37:05Z</time>
      </trkpt>
      <trkpt lat="43.71068000" lon="10.48112000">
        <ele>6.0000000</ele>
        <time>2010-01-01T09:38:40Z</time>
      </trkpt>
      <trkpt lat="43.71108000" lon="10.47946000">
        <ele>7.0000000</ele>
        <time>2010-01-01T09:39:31Z</time>
      </trkpt>
      <trkpt lat="43.71145000" lon="10.47793000">
        <ele>5.0000000</ele>
        <time>2010-01-01T09:40:17Z</time>
      </trkpt>
      <trkpt lat="43.71200000" lon="10.47641000">
        <ele>6.0000000</ele>
        <time>2010-01-01T09:41:06Z</time>
      </trkpt>
      <trkpt lat="43.71266540" lon="10.47626850">
        <ele>8.0000000</ele>
        <time>2010-01-01T09:41:33Z</time>
      </trkpt>
      <trkpt lat="43.71324000" lon="10.47612000">
        <ele>9.0000000</ele>
        <time>2010-01-01T09:41:57Z</time>
      </trkpt>
      <trkpt lat="43.71355000" lon="10.47601000">
        <ele>7.0000000</ele>
        <time>2010-01-01T09:42:10Z</time>
      </trkpt>
      <trkpt lat="43.71390000" lon="10.47596000">
        <ele>5.0000000</ele>
        <time>2010-01-01T09:42:24Z</time>
      </trkpt>
      <trkpt lat="43.71401000" lon="10.47589000">
        <ele>5.0000000</ele>
        <time>2010-01-01T09:42:29Z</time>
      </trkpt>
      <trkpt lat="43.71505000" lon="10.47472000">
        <ele>7.0000000</ele>
        <time>2010-01-01T09:43:22Z</time>
      </trkpt>
      <trkpt lat="43.71518000" lon="10.47452000">
        <ele>7.0000000</ele>
        <time>2010-01-01T09:43:30Z</time>
      </trkpt>
      <trkpt lat="43.71546000" lon="10.47402000">
        <ele>6.0000000</ele>
        <time>2010-01-01T09:43:48Z</time>
      </trkpt>
      <trkpt lat="43.71569000" lon="10.47353000">
        <ele>6.0000000</ele>
        <time>2010-01-01T09:44:05Z</time>
      </trkpt>
      <trkpt lat="43.71591000" lon="10.47323000">
        <ele>6.0000000</ele>
        <time>2010-01-01T09:44:18Z</time>
      </trkpt>
      <trkpt lat="43.71759000" lon="10.47207000">
        <ele>5.0000000</ele>
        <time>2010-01-01T09:45:33Z</time>
      </trkpt>
      <trkpt lat="43.71778000" lon="10.47192000">
        <ele>5.0000000</ele>
        <time>2010-01-01T09:45:41Z</time>
      </trkpt>
      <trkpt lat="43.71811000" lon="10.47155000">
        <ele>5.0000000</ele>
        <time>2010-01-01T09:45:58Z</time>
      </trkpt>
      <trkpt lat="43.71826000" lon="10.47128000">
        <ele>4.0000000</ele>
        <time>2010-01-01T09:46:08Z</time>
      </trkpt>
      <trkpt lat="43.71833000" lon="10.47112000">
        <ele>4.0000000</ele>
        <time>2010-01-01T09:46:14Z</time>
      </trkpt>
      <trkpt lat="43.71859000" lon="10.47012000">
        <ele>5.0000000</ele>
        <time>2010-01-01T09:46:44Z</time>
      </trkpt>
      <trkpt lat="43.71872000" lon="10.46970000">
        <ele>5.0000000</ele>
        <time>2010-01-01T09:46:58Z</time>
      </trkpt>
      <trkpt lat="43.71880000" lon="10.46955000">
        <ele>5.0000000</ele>
        <time>2010-01-01T09:47:03Z</time>
      </trkpt>
      <trkpt lat="43.72019000" lon="10.46788000">
        <ele>4.0000000</ele>
        <time>2010-01-01T09:48:17Z</time>
      </trkpt>
      <trkpt lat="43.72027000" lon="10.46786000">
        <ele>4.0000000</ele>
        <time>2010-01-01T09:48:20Z</time>
      </trkpt>
      <trkpt lat="43.72040000" lon="10.46795000">
        <ele>4.0000000</ele>
        <time>2010-01-01T09:48:26Z</time>
      </trkpt>
      <trkpt lat="43.72221000" lon="10.46974000">
        <ele>5.0000000</ele>
        <time>2010-01-01T09:49:55Z</time>
      </trkpt>
      <trkpt lat="43.72326000" lon="10.47079000">
        <ele>4.0000000</ele>
        <time>2010-01-01T09:50:47Z</time>
      </trkpt>
      <trkpt lat="43.72324000" lon="10.46944000">
        <ele>3.0000000</ele>
        <time>2010-01-01T09:51:26Z</time>
      </trkpt>
      <trkpt lat="43.72324000" lon="10.46841000">
        <ele>5.0000000</ele>
        <time>2010-01-01T09:51:56Z</time>
      </trkpt>
      <trkpt lat="43.72336000" lon="10.46614000">
        <ele>5.0000000</ele>
        <time>2010-01-01T09:53:01Z</time>
      </trkpt>
      <trkpt lat="43.72354080" lon="10.46559870">
        <ele>5.0000000</ele>
        <time>2010-01-01T09:53:19Z</time>
      </trkpt>
      <trkpt lat="43.72393000" lon="10.46464000">
        <ele>6.0000000</ele>
        <time>2010-01-01T09:53:51Z</time>
      </trkpt>
      <trkpt lat="43.72465000" lon="10.46307000">
        <ele>4.0000000</ele>
        <time>2010-01-01T09:54:44Z</time>
      </trkpt>
      <trkpt lat="43.72494000" lon="10.46232000">
        <ele>4.0000000</ele>
        <time>2010-01-01T09:55:09Z</time>
      </trkpt>
      <trkpt lat="43.72538000" lon="10.46108000">
        <ele>4.0000000</ele>
        <time>2010-01-01T09:55:49Z</time>
      </trkpt>
      <trkpt lat="43.72581000" lon="10.45978000">
        <ele>6.0000000</ele>
        <time>2010-01-01T09:56:30Z</time>
      </trkpt>
      <trkpt lat="43.72596000" lon="10.45920000">
        <ele>5.0000000</ele>
        <time>2010-01-01T09:56:48Z</time>
      </trkpt>
      <trkpt lat="43.72600000" lon="10.45892000">
        <ele>5.0000000</ele>
        <time>2010-01-01T09:56:56Z</time>
      </trkpt>
      <trkpt lat="43.72598000" lon="10.45851000">
        <ele>5.0000000</ele>
        <time>2010-01-01T09:57:08Z</time>
      </trkpt>
      <trkpt lat="43.72597000" lon="10.45817000">
        <ele>6.0000000</ele>
        <time>2010-01-01T09:57:18Z</time>
      </trkpt>
      <trkpt lat="43.72614000" lon="10.45508000">
        <ele>5.0000000</ele>
        <time>2010-01-01T09:58:48Z</time>
      </trkpt>
      <trkpt lat="43.72617000" lon="10.45406000">
        <ele>4.0000000</ele>
        <time>2010-01-01T09:59:17Z</time>
      </trkpt>
      <trkpt lat="43.72613000" lon="10.45333000">
        <ele>3.0000000</ele>
        <time>2010-01-01T09:59:38Z</time>
      </trkpt>
      <trkpt lat="43.72621000" lon="10.45225000">
        <ele>4.0000000</ele>
        <time>2010-01-01T10:00:10Z</time>
      </trkpt>
      <trkpt lat="43.72622000" lon="10.45194000">
        <ele>5.0000000</ele>
        <time>2010-01-01T10:00:19Z</time>
      </trkpt>
      <trkpt lat="43.72620000" lon="10.45182000">
        <ele>5.0000000</ele>
        <time>2010-01-01T10:00:22Z</time>
      </trkpt>
      <trkpt lat="43.72605000" lon="10.45149000">
        <ele>5.0000000</ele>
        <time>2010-01-01T10:00:34Z</time>
      </trkpt>
      <trkpt lat="43.72554890" lon="10.45061050">
        <ele>4.0000000</ele>
        <time>2010-01-01T10:01:06Z</time>
      </trkpt>
      <trkpt lat="43.72538990" lon="10.45021890">
        <ele>5.0000000</ele>
        <time>2010-01-01T10:01:19Z</time>
      </trkpt>
      <trkpt lat="43.72531000" lon="10.45010000">
        <ele>5.0000000</ele>
        <time>2010-01-01T10:01:24Z</time>
      </trkpt>
      <trkpt lat="43.72479000" lon="10.44958000">
        <ele>3.0000000</ele>
        <time>2010-01-01T10:01:49Z</time>
      </trkpt>
      <trkpt lat="43.72432000" lon="10.44886000">
        <ele>2.0000000</ele>
        <time>2010-01-01T10:02:17Z</time>
      </trkpt>
      <trkpt lat="43.72415000" lon="10.44868000">
        <ele>2.0000000</ele>
        <time>2010-01-01T10:02:26Z</time>
      </trkpt>
      <trkpt lat="43.72371000" lon="10.44826000">
        <ele>2.0000000</ele>
        <time>2010-01-01T10:02:47Z</time>
      </trkpt>
      <trkpt lat="43.72304000" lon="10.44770000">
        <ele>5.0000000</ele>
        <time>2010-01-01T10:03:19Z</time>
      </trkpt>
      <trkpt lat="43.72210000" lon="10.44696000">
        <ele>5.0000000</ele>
        <time>2010-01-01T10:04:02Z</time>
      </trkpt>
      <trkpt lat="43.72168000" lon="10.44670000">
        <ele>3.0000000</ele>
        <time>2010-01-01T10:04:20Z</time>
      </trkpt>
      <trkpt lat="43.72092000" lon="10.44662000">
        <ele>5.0000000</ele>
        <time>2010-01-01T10:04:51Z</time>
      </trkpt>
      <trkpt lat="43.72067000" lon="10.44658000">
        <ele>5.0000000</ele>
        <time>2010-01-01T10:05:01Z</time>
      </trkpt>
      <trkpt lat="43.72030000" lon="10.44649000">
        <ele>6.0000000</ele>
        <time>2010-01-01T10:05:16Z</time>
      </trkpt>
      <trkpt lat="43.71966000" lon="10.44629000">
        <ele>6.0000000</ele>
        <time>2010-01-01T10:05:42Z</time>
      </trkpt>
      <trkpt lat="43.71873000" lon="10.44577000">
        <ele>6.0000000</ele>
        <time>2010-01-01T10:06:23Z</time>
      </trkpt>
      <trkpt lat="43.71791000" lon="10.44541000">
        <ele>6.0000000</ele>
        <time>2010-01-01T10:06:57Z</time>
      </trkpt>
      <trkpt lat="43.71613000" lon="10.44466000">
        <ele>6.0000000</ele>
        <time>2010-01-01T10:08:11Z</time>
      </trkpt>
      <trkpt lat="43.71590000" lon="10.44453000">
        <ele>5.0000000</ele>
        <time>2010-01-01T10:08:21Z</time>
      </trkpt>
      <trkpt lat="43.71418000" lon="10.44345000">
        <ele>3.0000000</ele>
        <time>2010-01-01T10:09:37Z</time>
      </trkpt>
      <trkpt lat="43.71372000" lon="10.44318000">
        <ele>2.0000000</ele>
        <time>2010-01-01T10:09:57Z</time>
      </trkpt>
      <trkpt lat="43.71237000" lon="10.44257000">
        <ele>3.0000000</ele>
        <time>2010-01-01T10:10:54Z</time>
      </trkpt>
      <trkpt lat="43.71220000" lon="10.44232000">
        <ele>3.0000000</ele>
        <time>2010-01-01T10:11:04Z</time>
      </trkpt>
      <trkpt lat="43.71210000" lon="10.44194000">
        <ele>2.0000000</ele>
        <time>2010-01-01T10:11:15Z</time>
      </trkpt>
      <trkpt lat="43.71201000" lon="10.44181000">
        <ele>2.0000000</ele>
        <time>2010-01-01T10:11:21Z</time>
      </trkpt>
      <trkpt lat="43.71188000" lon="10.44176000">
        <ele>2.0000000</ele>
        <time>2010-01-01T10:11:26Z</time>
      </trkpt>
      <trkpt lat="43.71175000" lon="10.44183000">
        <ele>2.0000000</ele>
        <time>2010-01-01T10:11:32Z</time>
      </trkpt>
      <trkpt lat="43.71155000" lon="10.44190000">
        <ele>3.0000000</ele>
        <time>2010-01-01T10:11:40Z</time>
      </trkpt>
      <trkpt lat="43.71130000" lon="10.44194000">
        <ele>3.0000000</ele>
        <time>2010-01-01T10:11:50Z</time>
      </trkpt>
      <trkpt lat="43.71104000" lon="10.44187000">
        <ele>4.0000000</ele>
        <time>2010-01-01T10:12:01Z</time>
      </trkpt>
      <trkpt lat="43.71086000" lon="10.44172000">
        <ele>4.0000000</ele>
        <time>2010-01-01T10:12:09Z</time>
      </trkpt>
      <trkpt lat="43.70956000" lon="10.43987000">
        <ele>10.000000</ele>
        <time>2010-01-01T10:13:24Z</time>
      </trkpt>
      <trkpt lat="43.70798000" lon="10.43758000">
        <ele>7.0000000</ele>
        <time>2010-01-01T10:14:55Z</time>
      </trkpt>
      <trkpt lat="43.70790000" lon="10.43741000">
        <ele>6.0000000</ele>
        <time>2010-01-01T10:15:01Z</time>
      </trkpt>
      <trkpt lat="43.70784000" lon="10.43725000">
        <ele>5.0000000</ele>
        <time>2010-01-01T10:15:06Z</time>
      </trkpt>
      <trkpt lat="43.70775000" lon="10.43720000">
        <ele>4.0000000</ele>
        <time>2010-01-01T10:15:10Z</time>
      </trkpt>
      <trkpt lat="43.70767000" lon="10.43721000">
        <ele>4.0000000</ele>
        <time>2010-01-01T10:15:13Z</time>
      </trkpt>
      <trkpt lat="43.70757000" lon="10.43732000">
        <ele>4.0000000</ele>
        <time>2010-01-01T10:15:19Z</time>
      </trkpt>
      <trkpt lat="43.70755000" lon="10.43743000">
        <ele>5.0000000</ele>
        <time>2010-01-01T10:15:22Z</time>
      </trkpt>
      <trkpt lat="43.70754000" lon="10.43764000">
        <ele>5.0000000</ele>
        <time>2010-01-01T10:15:28Z</time>
      </trkpt>
      <trkpt lat="43.70748000" lon="10.43790000">
        <ele>4.0000000</ele>
        <time>2010-01-01T10:15:36Z</time>
      </trkpt>
      <trkpt lat="43.70731000" lon="10.43829000">
        <ele>3.0000000</ele>
        <time>2010-01-01T10:15:49Z</time>
      </trkpt>
      <trkpt lat="43.70696000" lon="10.43931000">
        <ele>5.0000000</ele>
        <time>2010-01-01T10:16:22Z</time>
      </trkpt>
      <trkpt lat="43.70689000" lon="10.43939000">
        <ele>4.0000000</ele>
        <time>2010-01-01T10:16:25Z</time>
      </trkpt>
      <trkpt lat="43.70690000" lon="10.43948000">
        <ele>5.0000000</ele>
        <time>2010-01-01T10:16:28Z</time>
      </trkpt>
      <trkpt lat="43.70648000" lon="10.44054000">
        <ele>4.0000000</ele>
        <time>2010-01-01T10:17:03Z</time>
      </trkpt>
      <trkpt lat="43.70612000" lon="10.44122000">
        <ele>6.0000000</ele>
        <time>2010-01-01T10:17:27Z</time>
      </trkpt>
      <trkpt lat="43.70595000" lon="10.44124000">
        <ele>6.0000000</ele>
        <time>2010-01-01T10:17:34Z</time>
      </trkpt>
      <trkpt lat="43.70586000" lon="10.44119000">
        <ele>6.0000000</ele>
        <time>2010-01-01T10:17:38Z</time>
      </trkpt>
      <trkpt lat="43.70578000" lon="10.44107000">
        <ele>5.0000000</ele>
        <time>2010-01-01T10:17:43Z</time>
      </trkpt>
      <trkpt lat="43.70554000" lon="10.44072000">
        <ele>4.0000000</ele>
        <time>2010-01-01T10:17:57Z</time>
      </trkpt>
      <trkpt lat="43.70536000" lon="10.44053000">
        <ele>5.0000000</ele>
        <time>2010-01-01T10:18:06Z</time>
      </trkpt>
      <trkpt lat="43.70467000" lon="10.43996000">
        <ele>4.0000000</ele>
        <time>2010-01-01T10:18:38Z</time>
      </trkpt>
      <trkpt lat="43.70541020" lon="10.43848150">
        <ele>6.0000000</ele>
        <time>2010-01-01T10:19:30Z</time>
      </trkpt>
    </trkseg>
  </trk>
</gpx>

